﻿<?xml version="1.0" encoding="utf-8"?><gpx creator="Garmin Desktop App" version="1.1" xsi:schemaLocation="http://www.topografix.com/GPX/1/1 http://www.topografix.com/GPX/1/1/gpx.xsd http://www.garmin.com/xmlschemas/WaypointExtension/v1 http://www8.garmin.com/xmlschemas/WaypointExtensionv1.xsd http://www.garmin.com/xmlschemas/TrackPointExtension/v1 http://www.garmin.com/xmlschemas/TrackPointExtensionv1.xsd http://www.garmin.com/xmlschemas/GpxExtensions/v3 http://www8.garmin.com/xmlschemas/GpxExtensionsv3.xsd http://www.garmin.com/xmlschemas/ActivityExtension/v1 http://www8.garmin.com/xmlschemas/ActivityExtensionv1.xsd http://www.garmin.com/xmlschemas/AdventuresExtensions/v1 http://www8.garmin.com/xmlschemas/AdventuresExtensionv1.xsd http://www.garmin.com/xmlschemas/PressureExtension/v1 http://www.garmin.com/xmlschemas/PressureExtensionv1.xsd http://www.garmin.com/xmlschemas/TripExtensions/v1 http://www.garmin.com/xmlschemas/TripExtensionsv1.xsd http://www.garmin.com/xmlschemas/TripMetaDataExtensions/v1 http://www.garmin.com/xmlschemas/TripMetaDataExtensionsv1.xsd http://www.garmin.com/xmlschemas/ViaPointTransportationModeExtensions/v1 http://www.garmin.com/xmlschemas/ViaPointTransportationModeExtensionsv1.xsd http://www.garmin.com/xmlschemas/CreationTimeExtension/v1 http://www.garmin.com/xmlschemas/CreationTimeExtensionsv1.xsd http://www.garmin.com/xmlschemas/AccelerationExtension/v1 http://www.garmin.com/xmlschemas/AccelerationExtensionv1.xsd http://www.garmin.com/xmlschemas/PowerExtension/v1 http://www.garmin.com/xmlschemas/PowerExtensionv1.xsd http://www.garmin.com/xmlschemas/VideoExtension/v1 http://www.garmin.com/xmlschemas/VideoExtensionv1.xsd" xmlns="http://www.topografix.com/GPX/1/1" xmlns:xsi="http://www.w3.org/2001/XMLSchema-instance" xmlns:wptx1="http://www.garmin.com/xmlschemas/WaypointExtension/v1" xmlns:gpxtrx="http://www.garmin.com/xmlschemas/GpxExtensions/v3" xmlns:gpxtpx="http://www.garmin.com/xmlschemas/TrackPointExtension/v1" xmlns:gpxx="http://www.garmin.com/xmlschemas/GpxExtensions/v3" xmlns:trp="http://www.garmin.com/xmlschemas/TripExtensions/v1" xmlns:adv="http://www.garmin.com/xmlschemas/AdventuresExtensions/v1" xmlns:prs="http://www.garmin.com/xmlschemas/PressureExtension/v1" xmlns:tmd="http://www.garmin.com/xmlschemas/TripMetaDataExtensions/v1" xmlns:vptm="http://www.garmin.com/xmlschemas/ViaPointTransportationModeExtensions/v1" xmlns:ctx="http://www.garmin.com/xmlschemas/CreationTimeExtension/v1" xmlns:gpxacc="http://www.garmin.com/xmlschemas/AccelerationExtension/v1" xmlns:gpxpx="http://www.garmin.com/xmlschemas/PowerExtension/v1" xmlns:vidx1="http://www.garmin.com/xmlschemas/VideoExtension/v1">

  <metadata>
    <link href="http://www.garmin.com">
      <text>Garmin International</text>
    </link>
    <time>2021-05-30T19:42:17Z</time>
    <bounds maxlat="51.053013587370515" maxlon="5.037399418652058" minlat="51.024933876469731" minlon="4.954597111791372" />
  </metadata>

  <trk>
    <name>parking paepehoeve met guy cuypers 19 km</name>
    <extensions>
      <gpxx:TrackExtension>
        <gpxx:DisplayColor>Cyan</gpxx:DisplayColor>
      </gpxx:TrackExtension>
    </extensions>
    <trkseg>
      <trkpt lat="51.034394698217511" lon="5.036094104871154">
        <ele>-175.47</ele>
        <time>2021-05-30T08:30:50Z</time>
      </trkpt>
      <trkpt lat="51.034401068463922" lon="5.036075748503208">
        <ele>-176.63</ele>
        <time>2021-05-30T08:31:44Z</time>
      </trkpt>
      <trkpt lat="51.034403750672936" lon="5.036080190911889">
        <ele>-176.53</ele>
        <time>2021-05-30T08:32:13Z</time>
      </trkpt>
      <trkpt lat="51.034407019615173" lon="5.036064432933927">
        <ele>-176.33000000000001</ele>
        <time>2021-05-30T08:32:39Z</time>
      </trkpt>
      <trkpt lat="51.034227479249239" lon="5.036057727411389">
        <ele>-177.27000000000001</ele>
        <time>2021-05-30T08:32:57Z</time>
      </trkpt>
      <trkpt lat="51.034007370471954" lon="5.036085639148951">
        <ele>-178.00999999999999</ele>
        <time>2021-05-30T08:33:13Z</time>
      </trkpt>
      <trkpt lat="51.033798241987824" lon="5.03612520173192">
        <ele>-178.31999999999999</ele>
        <time>2021-05-30T08:33:28Z</time>
      </trkpt>
      <trkpt lat="51.033532535657287" lon="5.036150766536593">
        <ele>-179</ele>
        <time>2021-05-30T08:33:47Z</time>
      </trkpt>
      <trkpt lat="51.033320557326078" lon="5.036212205886841">
        <ele>-179.06999999999999</ele>
        <time>2021-05-30T08:34:02Z</time>
      </trkpt>
      <trkpt lat="51.033140765503049" lon="5.036273309960961">
        <ele>-180.30000000000001</ele>
        <time>2021-05-30T08:34:16Z</time>
      </trkpt>
      <trkpt lat="51.032930379733443" lon="5.036286637187004">
        <ele>-180.41999999999999</ele>
        <time>2021-05-30T08:34:33Z</time>
      </trkpt>
      <trkpt lat="51.032788055017591" lon="5.036349250003696">
        <ele>-181.09</ele>
        <time>2021-05-30T08:34:45Z</time>
      </trkpt>
      <trkpt lat="51.032639192417264" lon="5.036361990496516">
        <ele>-181.93000000000001</ele>
        <time>2021-05-30T08:34:59Z</time>
      </trkpt>
      <trkpt lat="51.0324024874717" lon="5.03645746037364">
        <ele>-182.19999999999999</ele>
        <time>2021-05-30T08:35:15Z</time>
      </trkpt>
      <trkpt lat="51.032369881868362" lon="5.036478163674474">
        <ele>-182.18000000000001</ele>
        <time>2021-05-30T08:35:17Z</time>
      </trkpt>
      <trkpt lat="51.032355297356844" lon="5.036485455930233">
        <ele>-182.15000000000001</ele>
        <time>2021-05-30T08:35:18Z</time>
      </trkpt>
      <trkpt lat="51.03220165707171" lon="5.03654002211988">
        <ele>-182.97999999999999</ele>
        <time>2021-05-30T08:35:32Z</time>
      </trkpt>
      <trkpt lat="51.032144660130143" lon="5.03655812703073">
        <ele>-182.81</ele>
        <time>2021-05-30T08:35:39Z</time>
      </trkpt>
      <trkpt lat="51.032128818333149" lon="5.036563742905855">
        <ele>-182.94</ele>
        <time>2021-05-30T08:35:40Z</time>
      </trkpt>
      <trkpt lat="51.031985739246011" lon="5.036581596359611">
        <ele>-184.11000000000001</ele>
        <time>2021-05-30T08:35:50Z</time>
      </trkpt>
      <trkpt lat="51.031705280765891" lon="5.036671115085483">
        <ele>-184.22999999999999</ele>
        <time>2021-05-30T08:36:08Z</time>
      </trkpt>
      <trkpt lat="51.0313974134624" lon="5.036725848913193">
        <ele>-185.72</ele>
        <time>2021-05-30T08:36:26Z</time>
      </trkpt>
      <trkpt lat="51.031156182289124" lon="5.036774128675461">
        <ele>-186.59999999999999</ele>
        <time>2021-05-30T08:36:44Z</time>
      </trkpt>
      <trkpt lat="51.030895505100489" lon="5.036863144487143">
        <ele>-187.44999999999999</ele>
        <time>2021-05-30T08:37:01Z</time>
      </trkpt>
      <trkpt lat="51.030696099624038" lon="5.036907317116857">
        <ele>-187.87</ele>
        <time>2021-05-30T08:37:15Z</time>
      </trkpt>
      <trkpt lat="51.030690735206008" lon="5.036792233586311">
        <ele>-187.74000000000001</ele>
        <time>2021-05-30T08:37:23Z</time>
      </trkpt>
      <trkpt lat="51.030689645558596" lon="5.036772536113858">
        <ele>-187.72</ele>
        <time>2021-05-30T08:37:24Z</time>
      </trkpt>
      <trkpt lat="51.030687801539898" lon="5.0367530900985">
        <ele>-187.72</ele>
        <time>2021-05-30T08:37:25Z</time>
      </trkpt>
      <trkpt lat="51.03059601970017" lon="5.036321002990007">
        <ele>-188.41999999999999</ele>
        <time>2021-05-30T08:37:45Z</time>
      </trkpt>
      <trkpt lat="51.030495353043079" lon="5.036033168435097">
        <ele>-188.83000000000001</ele>
        <time>2021-05-30T08:38:01Z</time>
      </trkpt>
      <trkpt lat="51.030389908701181" lon="5.03562237136066">
        <ele>-189.87</ele>
        <time>2021-05-30T08:38:21Z</time>
      </trkpt>
      <trkpt lat="51.030291588976979" lon="5.035300003364682">
        <ele>-190.16</ele>
        <time>2021-05-30T08:38:37Z</time>
      </trkpt>
      <trkpt lat="51.030219588428736" lon="5.034981574863195">
        <ele>-190.15000000000001</ele>
        <time>2021-05-30T08:38:53Z</time>
      </trkpt>
      <trkpt lat="51.030155466869473" lon="5.034679239615798">
        <ele>-189.83000000000001</ele>
        <time>2021-05-30T08:39:09Z</time>
      </trkpt>
      <trkpt lat="51.030132751911879" lon="5.034399786964059">
        <ele>-190.18000000000001</ele>
        <time>2021-05-30T08:39:24Z</time>
      </trkpt>
      <trkpt lat="51.030114227905869" lon="5.034264335408807">
        <ele>-190.28999999999999</ele>
        <time>2021-05-30T08:39:31Z</time>
      </trkpt>
      <trkpt lat="51.030108444392681" lon="5.034241620451212">
        <ele>-190.28999999999999</ele>
        <time>2021-05-30T08:39:32Z</time>
      </trkpt>
      <trkpt lat="51.030059158802032" lon="5.033927634358406">
        <ele>-190</ele>
        <time>2021-05-30T08:39:48Z</time>
      </trkpt>
      <trkpt lat="51.030027307569981" lon="5.0335877481848">
        <ele>-190.50999999999999</ele>
        <time>2021-05-30T08:40:05Z</time>
      </trkpt>
      <trkpt lat="51.029978273436427" lon="5.033254651352763">
        <ele>-190.28999999999999</ele>
        <time>2021-05-30T08:40:21Z</time>
      </trkpt>
      <trkpt lat="51.029932927340269" lon="5.032967403531075">
        <ele>-190.59999999999999</ele>
        <time>2021-05-30T08:40:37Z</time>
      </trkpt>
      <trkpt lat="51.029942063614726" lon="5.032645706087351">
        <ele>-190.91</ele>
        <time>2021-05-30T08:40:54Z</time>
      </trkpt>
      <trkpt lat="51.02990903891623" lon="5.032307077199221">
        <ele>-190.75999999999999</ele>
        <time>2021-05-30T08:41:09Z</time>
      </trkpt>
      <trkpt lat="51.029903339222074" lon="5.032233651727438">
        <ele>-190.69999999999999</ele>
        <time>2021-05-30T08:41:13Z</time>
      </trkpt>
      <trkpt lat="51.029907194897532" lon="5.032208506017923">
        <ele>-190.59999999999999</ele>
        <time>2021-05-30T08:41:14Z</time>
      </trkpt>
      <trkpt lat="51.029910631477833" lon="5.032181013375521">
        <ele>-190.53</ele>
        <time>2021-05-30T08:41:15Z</time>
      </trkpt>
      <trkpt lat="51.029910128563643" lon="5.032156119123101">
        <ele>-190.49000000000001</ele>
        <time>2021-05-30T08:41:16Z</time>
      </trkpt>
      <trkpt lat="51.029909709468484" lon="5.032129967585206">
        <ele>-190.47</ele>
        <time>2021-05-30T08:41:17Z</time>
      </trkpt>
      <trkpt lat="51.029896968975663" lon="5.031673070043325">
        <ele>-189.99000000000001</ele>
        <time>2021-05-30T08:41:38Z</time>
      </trkpt>
      <trkpt lat="51.02985673584044" lon="5.03121349029243">
        <ele>-190.84</ele>
        <time>2021-05-30T08:41:54Z</time>
      </trkpt>
      <trkpt lat="51.029892778024077" lon="5.02978571690619">
        <ele>-190.59999999999999</ele>
        <time>2021-05-30T08:42:32Z</time>
      </trkpt>
      <trkpt lat="51.029782220721245" lon="5.029273414984345">
        <ele>-190.25999999999999</ele>
        <time>2021-05-30T08:42:45Z</time>
      </trkpt>
      <trkpt lat="51.029726481065154" lon="5.028879046440125">
        <ele>-190.13999999999999</ele>
        <time>2021-05-30T08:42:57Z</time>
      </trkpt>
      <trkpt lat="51.029640147462487" lon="5.028519714251161">
        <ele>-190.27000000000001</ele>
        <time>2021-05-30T08:43:11Z</time>
      </trkpt>
      <trkpt lat="51.029557920992374" lon="5.027938848361373">
        <ele>-190.63999999999999</ele>
        <time>2021-05-30T08:43:23Z</time>
      </trkpt>
      <trkpt lat="51.029545767232776" lon="5.027398047968745">
        <ele>-190.53999999999999</ele>
        <time>2021-05-30T08:43:37Z</time>
      </trkpt>
      <trkpt lat="51.029571248218417" lon="5.02735965885222">
        <ele>-189.36000000000001</ele>
        <time>2021-05-30T08:43:50Z</time>
      </trkpt>
      <trkpt lat="51.02968524210155" lon="5.027316240593791">
        <ele>-188.99000000000001</ele>
        <time>2021-05-30T08:43:58Z</time>
      </trkpt>
      <trkpt lat="51.029715165495872" lon="5.027313558384776">
        <ele>-188.87</ele>
        <time>2021-05-30T08:44:00Z</time>
      </trkpt>
      <trkpt lat="51.029727654531598" lon="5.027306769043207">
        <ele>-188.86000000000001</ele>
        <time>2021-05-30T08:44:01Z</time>
      </trkpt>
      <trkpt lat="51.029769312590361" lon="5.027276342734695">
        <ele>-188.91</ele>
        <time>2021-05-30T08:44:05Z</time>
      </trkpt>
      <trkpt lat="51.029771575704217" lon="5.027258321642876">
        <ele>-188.91999999999999</ele>
        <time>2021-05-30T08:44:06Z</time>
      </trkpt>
      <trkpt lat="51.029772162437439" lon="5.027227643877268">
        <ele>-188.91999999999999</ele>
        <time>2021-05-30T08:44:07Z</time>
      </trkpt>
      <trkpt lat="51.029783394187689" lon="5.026899324730039">
        <ele>-188.44999999999999</ele>
        <time>2021-05-30T08:44:21Z</time>
      </trkpt>
      <trkpt lat="51.029808707535267" lon="5.026511494070292">
        <ele>-188.55000000000001</ele>
        <time>2021-05-30T08:44:39Z</time>
      </trkpt>
      <trkpt lat="51.029822370037436" lon="5.026293145492673">
        <ele>-188.56999999999999</ele>
        <time>2021-05-30T08:44:50Z</time>
      </trkpt>
      <trkpt lat="51.029819771647453" lon="5.026269676163793">
        <ele>-188.65000000000001</ele>
        <time>2021-05-30T08:44:51Z</time>
      </trkpt>
      <trkpt lat="51.02981960400939" lon="5.026246206834912">
        <ele>-188.74000000000001</ele>
        <time>2021-05-30T08:44:52Z</time>
      </trkpt>
      <trkpt lat="51.02981960400939" lon="5.026223994791508">
        <ele>-188.77000000000001</ele>
        <time>2021-05-30T08:44:53Z</time>
      </trkpt>
      <trkpt lat="51.029817257076502" lon="5.026202369481325">
        <ele>-188.80000000000001</ele>
        <time>2021-05-30T08:44:54Z</time>
      </trkpt>
      <trkpt lat="51.029816502705216" lon="5.026179319247603">
        <ele>-188.81999999999999</ele>
        <time>2021-05-30T08:44:55Z</time>
      </trkpt>
      <trkpt lat="51.029823962599039" lon="5.026035904884338">
        <ele>-188.69999999999999</ele>
        <time>2021-05-30T08:45:04Z</time>
      </trkpt>
      <trkpt lat="51.029812982305884" lon="5.026014111936092">
        <ele>-188.63999999999999</ele>
        <time>2021-05-30T08:45:05Z</time>
      </trkpt>
      <trkpt lat="51.029807114973664" lon="5.025992821902037">
        <ele>-188.53999999999999</ele>
        <time>2021-05-30T08:45:06Z</time>
      </trkpt>
      <trkpt lat="51.029794961214066" lon="5.025973208248615">
        <ele>-188.34</ele>
        <time>2021-05-30T08:45:07Z</time>
      </trkpt>
      <trkpt lat="51.029780795797706" lon="5.025946721434593">
        <ele>-188.21000000000001</ele>
        <time>2021-05-30T08:45:08Z</time>
      </trkpt>
      <trkpt lat="51.029661688953638" lon="5.025580935180187">
        <ele>-187.94999999999999</ele>
        <time>2021-05-30T08:45:23Z</time>
      </trkpt>
      <trkpt lat="51.029519531875849" lon="5.025274828076363">
        <ele>-188.18000000000001</ele>
        <time>2021-05-30T08:45:38Z</time>
      </trkpt>
      <trkpt lat="51.029451387003064" lon="5.025009959936142">
        <ele>-188.12</ele>
        <time>2021-05-30T08:45:52Z</time>
      </trkpt>
      <trkpt lat="51.029404364526272" lon="5.024659764021635">
        <ele>-187.97</ele>
        <time>2021-05-30T08:46:06Z</time>
      </trkpt>
      <trkpt lat="51.029278803616762" lon="5.023884940892458">
        <ele>-187.06</ele>
        <time>2021-05-30T08:46:22Z</time>
      </trkpt>
      <trkpt lat="51.029208730906248" lon="5.023384373635054">
        <ele>-187.25999999999999</ele>
        <time>2021-05-30T08:46:36Z</time>
      </trkpt>
      <trkpt lat="51.029256172478199" lon="5.022699404507875">
        <ele>-186.77000000000001</ele>
        <time>2021-05-30T08:46:51Z</time>
      </trkpt>
      <trkpt lat="51.029263883829117" lon="5.022093309089541">
        <ele>-186.47</ele>
        <time>2021-05-30T08:47:03Z</time>
      </trkpt>
      <trkpt lat="51.029342003166676" lon="5.021101897582412">
        <ele>-186.5</ele>
        <time>2021-05-30T08:47:28Z</time>
      </trkpt>
      <trkpt lat="51.029366562142968" lon="5.020710462704301">
        <ele>-186.40000000000001</ele>
        <time>2021-05-30T08:47:34Z</time>
      </trkpt>
      <trkpt lat="51.029377374798059" lon="5.020279632881284">
        <ele>-186.47</ele>
        <time>2021-05-30T08:47:47Z</time>
      </trkpt>
      <trkpt lat="51.02941894903779" lon="5.019778478890657">
        <ele>-186.18000000000001</ele>
        <time>2021-05-30T08:47:53Z</time>
      </trkpt>
      <trkpt lat="51.029820274561644" lon="5.019781244918704">
        <ele>-184.88</ele>
        <time>2021-05-30T08:48:06Z</time>
      </trkpt>
      <trkpt lat="51.03018413297832" lon="5.019743526354432">
        <ele>-183.27000000000001</ele>
        <time>2021-05-30T08:48:21Z</time>
      </trkpt>
      <trkpt lat="51.030560228973627" lon="5.019763559103012">
        <ele>-180.49000000000001</ele>
        <time>2021-05-30T08:48:36Z</time>
      </trkpt>
      <trkpt lat="51.031010337173939" lon="5.019732881337404">
        <ele>-177.38</ele>
        <time>2021-05-30T08:48:52Z</time>
      </trkpt>
      <trkpt lat="51.031201360747218" lon="5.019697761163116">
        <ele>-174.31</ele>
        <time>2021-05-30T08:49:07Z</time>
      </trkpt>
      <trkpt lat="51.0314682405442" lon="5.019614277407527">
        <ele>-171.88999999999999</ele>
        <time>2021-05-30T08:49:25Z</time>
      </trkpt>
      <trkpt lat="51.031832601875067" lon="5.019555436447263">
        <ele>-169.19999999999999</ele>
        <time>2021-05-30T08:49:44Z</time>
      </trkpt>
      <trkpt lat="51.032078191637993" lon="5.019475221633911">
        <ele>-168.25999999999999</ele>
        <time>2021-05-30T08:50:03Z</time>
      </trkpt>
      <trkpt lat="51.03229352273047" lon="5.019450075924397">
        <ele>-169.00999999999999</ele>
        <time>2021-05-30T08:50:21Z</time>
      </trkpt>
      <trkpt lat="51.032443307340145" lon="5.019400957971811">
        <ele>-169.80000000000001</ele>
        <time>2021-05-30T08:50:33Z</time>
      </trkpt>
      <trkpt lat="51.032475074753165" lon="5.019400287419558">
        <ele>-169.80000000000001</ele>
        <time>2021-05-30T08:50:34Z</time>
      </trkpt>
      <trkpt lat="51.032491000369191" lon="5.019394000992179">
        <ele>-169.75</ele>
        <time>2021-05-30T08:50:35Z</time>
      </trkpt>
      <trkpt lat="51.032727202400565" lon="5.019313786178827">
        <ele>-170.97</ele>
        <time>2021-05-30T08:50:52Z</time>
      </trkpt>
      <trkpt lat="51.033091228455305" lon="5.019308421760798">
        <ele>-172.44</ele>
        <time>2021-05-30T08:51:12Z</time>
      </trkpt>
      <trkpt lat="51.033392054960132" lon="5.019274558871985">
        <ele>-173.12</ele>
        <time>2021-05-30T08:51:33Z</time>
      </trkpt>
      <trkpt lat="51.033697407692671" lon="5.01927187666297">
        <ele>-173.31999999999999</ele>
        <time>2021-05-30T08:51:53Z</time>
      </trkpt>
      <trkpt lat="51.034006699919701" lon="5.019183782860637">
        <ele>-173.75</ele>
        <time>2021-05-30T08:52:12Z</time>
      </trkpt>
      <trkpt lat="51.034257737919688" lon="5.019088312983513">
        <ele>-175</ele>
        <time>2021-05-30T08:52:28Z</time>
      </trkpt>
      <trkpt lat="51.034422107040882" lon="5.01904271543026">
        <ele>-175.59</ele>
        <time>2021-05-30T08:52:41Z</time>
      </trkpt>
      <trkpt lat="51.034648418426514" lon="5.018910951912403">
        <ele>-175.97</ele>
        <time>2021-05-30T08:52:57Z</time>
      </trkpt>
      <trkpt lat="51.034855116158724" lon="5.018768291920424">
        <ele>-176.41</ele>
        <time>2021-05-30T08:53:12Z</time>
      </trkpt>
      <trkpt lat="51.035059969872236" lon="5.018582716584206">
        <ele>-176.34999999999999</ele>
        <time>2021-05-30T08:53:27Z</time>
      </trkpt>
      <trkpt lat="51.03526490740478" lon="5.01847785897553">
        <ele>-177.46000000000001</ele>
        <time>2021-05-30T08:53:44Z</time>
      </trkpt>
      <trkpt lat="51.03550530038774" lon="5.018509794026613">
        <ele>-178.38999999999999</ele>
        <time>2021-05-30T08:54:01Z</time>
      </trkpt>
      <trkpt lat="51.035778550431132" lon="5.018508452922106">
        <ele>-178.97</ele>
        <time>2021-05-30T08:54:20Z</time>
      </trkpt>
      <trkpt lat="51.036023302003741" lon="5.018498646095395">
        <ele>-179.27000000000001</ele>
        <time>2021-05-30T08:54:37Z</time>
      </trkpt>
      <trkpt lat="51.036268640309572" lon="5.018462520092726">
        <ele>-179.59999999999999</ele>
        <time>2021-05-30T08:54:56Z</time>
      </trkpt>
      <trkpt lat="51.036508865654469" lon="5.018407199531794">
        <ele>-179.90000000000001</ele>
        <time>2021-05-30T08:55:14Z</time>
      </trkpt>
      <trkpt lat="51.036695195361972" lon="5.018348610028625">
        <ele>-180.90000000000001</ele>
        <time>2021-05-30T08:55:29Z</time>
      </trkpt>
      <trkpt lat="51.036942964419723" lon="5.018280046060681">
        <ele>-181.91999999999999</ele>
        <time>2021-05-30T08:55:46Z</time>
      </trkpt>
      <trkpt lat="51.037257956340909" lon="5.018190862610936">
        <ele>-182.22999999999999</ele>
        <time>2021-05-30T08:56:07Z</time>
      </trkpt>
      <trkpt lat="51.037622652947903" lon="5.018157418817282">
        <ele>-181.84999999999999</ele>
        <time>2021-05-30T08:56:32Z</time>
      </trkpt>
      <trkpt lat="51.037930687889457" lon="5.018147528171539">
        <ele>-181.69</ele>
        <time>2021-05-30T08:56:54Z</time>
      </trkpt>
      <trkpt lat="51.038131769746542" lon="5.018135625869036">
        <ele>-181.34999999999999</ele>
        <time>2021-05-30T08:57:10Z</time>
      </trkpt>
      <trkpt lat="51.038343580439687" lon="5.018066307529807">
        <ele>-181.63999999999999</ele>
        <time>2021-05-30T08:57:26Z</time>
      </trkpt>
      <trkpt lat="51.038541896268725" lon="5.018017357215285">
        <ele>-181.91</ele>
        <time>2021-05-30T08:57:41Z</time>
      </trkpt>
      <trkpt lat="51.038689250126481" lon="5.017987852916122">
        <ele>-182.94999999999999</ele>
        <time>2021-05-30T08:57:59Z</time>
      </trkpt>
      <trkpt lat="51.038948586210608" lon="5.017941081896424">
        <ele>-184.06999999999999</ele>
        <time>2021-05-30T08:58:18Z</time>
      </trkpt>
      <trkpt lat="51.039146482944489" lon="5.017942003905773">
        <ele>-185.03999999999999</ele>
        <time>2021-05-30T08:58:35Z</time>
      </trkpt>
      <trkpt lat="51.039374638348818" lon="5.017877714708448">
        <ele>-185.53</ele>
        <time>2021-05-30T08:58:53Z</time>
      </trkpt>
      <trkpt lat="51.039627688005567" lon="5.017830692231655">
        <ele>-186.84</ele>
        <time>2021-05-30T08:59:08Z</time>
      </trkpt>
      <trkpt lat="51.039879815652966" lon="5.017757937312126">
        <ele>-186.83000000000001</ele>
        <time>2021-05-30T08:59:23Z</time>
      </trkpt>
      <trkpt lat="51.040106043219566" lon="5.017736312001944">
        <ele>-187.12</ele>
        <time>2021-05-30T08:59:39Z</time>
      </trkpt>
      <trkpt lat="51.040297904983163" lon="5.017683506011963">
        <ele>-187.66</ele>
        <time>2021-05-30T08:59:54Z</time>
      </trkpt>
      <trkpt lat="51.040331851691008" lon="5.017390223219991">
        <ele>-188.19999999999999</ele>
        <time>2021-05-30T09:00:09Z</time>
      </trkpt>
      <trkpt lat="51.040332354605198" lon="5.017340937629342">
        <ele>-188.24000000000001</ele>
        <time>2021-05-30T09:00:12Z</time>
      </trkpt>
      <trkpt lat="51.040344592183828" lon="5.017285700887442">
        <ele>-188.38</ele>
        <time>2021-05-30T09:00:15Z</time>
      </trkpt>
      <trkpt lat="51.040059691295028" lon="5.014982270076871">
        <ele>-188.84</ele>
        <time>2021-05-30T09:01:09Z</time>
      </trkpt>
      <trkpt lat="51.039659874513745" lon="5.013854652643204">
        <ele>-188.94</ele>
        <time>2021-05-30T09:01:33Z</time>
      </trkpt>
      <trkpt lat="51.039446722716093" lon="5.013184603303671">
        <ele>-189.41999999999999</ele>
        <time>2021-05-30T09:01:49Z</time>
      </trkpt>
      <trkpt lat="51.039292411878705" lon="5.012602731585503">
        <ele>-189.68000000000001</ele>
        <time>2021-05-30T09:02:05Z</time>
      </trkpt>
      <trkpt lat="51.039095856249332" lon="5.012087998911738">
        <ele>-189.53</ele>
        <time>2021-05-30T09:02:17Z</time>
      </trkpt>
      <trkpt lat="51.038884129375219" lon="5.011428678408265">
        <ele>-189.41999999999999</ele>
        <time>2021-05-30T09:02:30Z</time>
      </trkpt>
      <trkpt lat="51.038520773872733" lon="5.01078687608242">
        <ele>-189.63999999999999</ele>
        <time>2021-05-30T09:02:46Z</time>
      </trkpt>
      <trkpt lat="51.038264790549874" lon="5.010653352364898">
        <ele>-189.33000000000001</ele>
        <time>2021-05-30T09:03:00Z</time>
      </trkpt>
      <trkpt lat="51.038130428642035" lon="5.010574143379927">
        <ele>-189.16999999999999</ele>
        <time>2021-05-30T09:03:22Z</time>
      </trkpt>
      <trkpt lat="51.038122968748212" lon="5.010550757870078">
        <ele>-189.16999999999999</ele>
        <time>2021-05-30T09:03:34Z</time>
      </trkpt>
      <trkpt lat="51.037880731746554" lon="5.010377755388618">
        <ele>-189.16999999999999</ele>
        <time>2021-05-30T09:03:35Z</time>
      </trkpt>
      <trkpt lat="51.038163704797626" lon="5.0103475805372">
        <ele>-189.16999999999999</ele>
        <time>2021-05-30T09:03:37Z</time>
      </trkpt>
      <trkpt lat="51.038025319576263" lon="5.010367697104812">
        <ele>-189.16999999999999</ele>
        <time>2021-05-30T09:03:38Z</time>
      </trkpt>
      <trkpt lat="51.038169991225004" lon="5.010327463969588">
        <ele>-189.16</ele>
        <time>2021-05-30T09:03:40Z</time>
      </trkpt>
      <trkpt lat="51.038437122479081" lon="5.010198215022683">
        <ele>-189.22</ele>
        <time>2021-05-30T09:03:52Z</time>
      </trkpt>
      <trkpt lat="51.038812464103103" lon="5.009942399337888">
        <ele>-189.88</ele>
        <time>2021-05-30T09:04:08Z</time>
      </trkpt>
      <trkpt lat="51.039270535111427" lon="5.009651631116867">
        <ele>-189.94</ele>
        <time>2021-05-30T09:04:24Z</time>
      </trkpt>
      <trkpt lat="51.039485530927777" lon="5.009520286694169">
        <ele>-189.91</ele>
        <time>2021-05-30T09:04:38Z</time>
      </trkpt>
      <trkpt lat="51.039748303592205" lon="5.009286515414715">
        <ele>-189.78999999999999</ele>
        <time>2021-05-30T09:05:02Z</time>
      </trkpt>
      <trkpt lat="51.039726678282022" lon="5.009101778268814">
        <ele>-190.00999999999999</ele>
        <time>2021-05-30T09:05:14Z</time>
      </trkpt>
      <trkpt lat="51.039691558107734" lon="5.008995831012726">
        <ele>-189.69999999999999</ele>
        <time>2021-05-30T09:05:35Z</time>
      </trkpt>
      <trkpt lat="51.039683762937784" lon="5.009009409695864">
        <ele>-189.59</ele>
        <time>2021-05-30T09:05:44Z</time>
      </trkpt>
      <trkpt lat="51.039676051586866" lon="5.009022653102875">
        <ele>-189.59</ele>
        <time>2021-05-30T09:05:45Z</time>
      </trkpt>
      <trkpt lat="51.039557363837957" lon="5.009100269526243">
        <ele>-190.31</ele>
        <time>2021-05-30T09:05:57Z</time>
      </trkpt>
      <trkpt lat="51.039528278633952" lon="5.009098760783672">
        <ele>-190.30000000000001</ele>
        <time>2021-05-30T09:05:58Z</time>
      </trkpt>
      <trkpt lat="51.039507407695055" lon="5.009100269526243">
        <ele>-190.30000000000001</ele>
        <time>2021-05-30T09:05:59Z</time>
      </trkpt>
      <trkpt lat="51.039487794041634" lon="5.009095491841435">
        <ele>-190.28999999999999</ele>
        <time>2021-05-30T09:06:00Z</time>
      </trkpt>
      <trkpt lat="51.039469186216593" lon="5.009089205414057">
        <ele>-190.28</ele>
        <time>2021-05-30T09:06:01Z</time>
      </trkpt>
      <trkpt lat="51.039452673867345" lon="5.009082164615393">
        <ele>-190.34</ele>
        <time>2021-05-30T09:06:02Z</time>
      </trkpt>
      <trkpt lat="51.039297860115767" lon="5.008980575948954">
        <ele>-191.03</ele>
        <time>2021-05-30T09:06:13Z</time>
      </trkpt>
      <trkpt lat="51.039288556203246" lon="5.008966829627752">
        <ele>-191.03999999999999</ele>
        <time>2021-05-30T09:06:14Z</time>
      </trkpt>
      <trkpt lat="51.039274390786886" lon="5.008951490744948">
        <ele>-191.03999999999999</ele>
        <time>2021-05-30T09:06:15Z</time>
      </trkpt>
      <trkpt lat="51.039107758551836" lon="5.008825426921248">
        <ele>-191.25999999999999</ele>
        <time>2021-05-30T09:06:28Z</time>
      </trkpt>
      <trkpt lat="51.038839872926474" lon="5.008623925969005">
        <ele>-191.5</ele>
        <time>2021-05-30T09:06:46Z</time>
      </trkpt>
      <trkpt lat="51.038621691986918" lon="5.008468190208077">
        <ele>-191.68000000000001</ele>
        <time>2021-05-30T09:07:00Z</time>
      </trkpt>
      <trkpt lat="51.038451455533504" lon="5.008260738104582">
        <ele>-192.31</ele>
        <time>2021-05-30T09:07:14Z</time>
      </trkpt>
      <trkpt lat="51.038303263485432" lon="5.008062422275543">
        <ele>-191.66</ele>
        <time>2021-05-30T09:07:28Z</time>
      </trkpt>
      <trkpt lat="51.038060523569584" lon="5.007886737585068">
        <ele>-192.05000000000001</ele>
        <time>2021-05-30T09:07:43Z</time>
      </trkpt>
      <trkpt lat="51.037896992638707" lon="5.007692780345678">
        <ele>-192.53999999999999</ele>
        <time>2021-05-30T09:07:57Z</time>
      </trkpt>
      <trkpt lat="51.037786435335875" lon="5.007436713203788">
        <ele>-192.19</ele>
        <time>2021-05-30T09:08:11Z</time>
      </trkpt>
      <trkpt lat="51.037726420909166" lon="5.007355073466897">
        <ele>-192.19</ele>
        <time>2021-05-30T09:08:17Z</time>
      </trkpt>
      <trkpt lat="51.037710327655077" lon="5.007345853373408">
        <ele>-192.16</ele>
        <time>2021-05-30T09:08:18Z</time>
      </trkpt>
      <trkpt lat="51.037623826414347" lon="5.007284162566066">
        <ele>-191.61000000000001</ele>
        <time>2021-05-30T09:08:25Z</time>
      </trkpt>
      <trkpt lat="51.037521818652749" lon="5.007019126787782">
        <ele>-191.24000000000001</ele>
        <time>2021-05-30T09:08:40Z</time>
      </trkpt>
      <trkpt lat="51.037434982135892" lon="5.006878646090627">
        <ele>-191.52000000000001</ele>
        <time>2021-05-30T09:08:47Z</time>
      </trkpt>
      <trkpt lat="51.037418385967612" lon="5.006851237267256">
        <ele>-191.55000000000001</ele>
        <time>2021-05-30T09:08:48Z</time>
      </trkpt>
      <trkpt lat="51.037399526685476" lon="5.006825253367424">
        <ele>-191.62</ele>
        <time>2021-05-30T09:08:49Z</time>
      </trkpt>
      <trkpt lat="51.037384523078799" lon="5.006804969161749">
        <ele>-191.59999999999999</ele>
        <time>2021-05-30T09:08:50Z</time>
      </trkpt>
      <trkpt lat="51.037371782585979" lon="5.006785439327359">
        <ele>-191.53999999999999</ele>
        <time>2021-05-30T09:08:51Z</time>
      </trkpt>
      <trkpt lat="51.037289723753929" lon="5.006596343591809">
        <ele>-191.40000000000001</ele>
        <time>2021-05-30T09:09:00Z</time>
      </trkpt>
      <trkpt lat="51.037165923044086" lon="5.006297612562776">
        <ele>-191.53999999999999</ele>
        <time>2021-05-30T09:09:16Z</time>
      </trkpt>
      <trkpt lat="51.037127282470465" lon="5.006154868751764">
        <ele>-191.53</ele>
        <time>2021-05-30T09:09:24Z</time>
      </trkpt>
      <trkpt lat="51.037061819806695" lon="5.006029726937413">
        <ele>-191.46000000000001</ele>
        <time>2021-05-30T09:09:30Z</time>
      </trkpt>
      <trkpt lat="51.037055784836411" lon="5.006002904847264">
        <ele>-191.44</ele>
        <time>2021-05-30T09:09:31Z</time>
      </trkpt>
      <trkpt lat="51.036538202315569" lon="5.004768082872033">
        <ele>-191.24000000000001</ele>
        <time>2021-05-30T09:10:33Z</time>
      </trkpt>
      <trkpt lat="51.03652361780405" lon="5.004742266610265">
        <ele>-191.25999999999999</ele>
        <time>2021-05-30T09:10:34Z</time>
      </trkpt>
      <trkpt lat="51.036511128768325" lon="5.004715612158179">
        <ele>-191.25999999999999</ele>
        <time>2021-05-30T09:10:35Z</time>
      </trkpt>
      <trkpt lat="51.03649377822876" lon="5.004674959927797">
        <ele>-191.15000000000001</ele>
        <time>2021-05-30T09:10:37Z</time>
      </trkpt>
      <trkpt lat="51.036415491253138" lon="5.004533557221293">
        <ele>-190.97999999999999</ele>
        <time>2021-05-30T09:10:46Z</time>
      </trkpt>
      <trkpt lat="51.036396212875843" lon="5.004514949396253">
        <ele>-191.00999999999999</ele>
        <time>2021-05-30T09:10:47Z</time>
      </trkpt>
      <trkpt lat="51.03637408465147" lon="5.004496090114117">
        <ele>-190.94</ele>
        <time>2021-05-30T09:10:48Z</time>
      </trkpt>
      <trkpt lat="51.036359332501888" lon="5.004481254145503">
        <ele>-190.84</ele>
        <time>2021-05-30T09:10:49Z</time>
      </trkpt>
      <trkpt lat="51.036347765475512" lon="5.004469268023968">
        <ele>-190.75999999999999</ele>
        <time>2021-05-30T09:10:50Z</time>
      </trkpt>
      <trkpt lat="51.036122879013419" lon="5.004266928881407">
        <ele>-191</ele>
        <time>2021-05-30T09:11:04Z</time>
      </trkpt>
      <trkpt lat="51.035864632576704" lon="5.003962330520153">
        <ele>-190.84</ele>
        <time>2021-05-30T09:11:27Z</time>
      </trkpt>
      <trkpt lat="51.035842420533299" lon="5.003948835656047">
        <ele>-190.75</ele>
        <time>2021-05-30T09:11:28Z</time>
      </trkpt>
      <trkpt lat="51.035816436633468" lon="5.003918744623661">
        <ele>-190.86000000000001</ele>
        <time>2021-05-30T09:11:30Z</time>
      </trkpt>
      <trkpt lat="51.035618456080556" lon="5.003679525107145">
        <ele>-191.08000000000001</ele>
        <time>2021-05-30T09:11:46Z</time>
      </trkpt>
      <trkpt lat="51.035470431670547" lon="5.003501493483782">
        <ele>-190.69</ele>
        <time>2021-05-30T09:11:58Z</time>
      </trkpt>
      <trkpt lat="51.035472443327308" lon="5.003483053296804">
        <ele>-190.65000000000001</ele>
        <time>2021-05-30T09:11:59Z</time>
      </trkpt>
      <trkpt lat="51.035115290433168" lon="5.002963710576296">
        <ele>-191.25999999999999</ele>
        <time>2021-05-30T09:13:16Z</time>
      </trkpt>
      <trkpt lat="51.035111183300614" lon="5.002946192398667">
        <ele>-191.40000000000001</ele>
        <time>2021-05-30T09:13:17Z</time>
      </trkpt>
      <trkpt lat="51.03511000983417" lon="5.002928841859102">
        <ele>-191.50999999999999</ele>
        <time>2021-05-30T09:13:18Z</time>
      </trkpt>
      <trkpt lat="51.035007331520319" lon="5.002618292346597">
        <ele>-191.40000000000001</ele>
        <time>2021-05-30T09:13:36Z</time>
      </trkpt>
      <trkpt lat="51.034996435046196" lon="5.002565234899521">
        <ele>-191.44</ele>
        <time>2021-05-30T09:13:39Z</time>
      </trkpt>
      <trkpt lat="51.034973217174411" lon="5.002535479143262">
        <ele>-191.47</ele>
        <time>2021-05-30T09:13:40Z</time>
      </trkpt>
      <trkpt lat="51.034884871914983" lon="5.002164244651794">
        <ele>-191.33000000000001</ele>
        <time>2021-05-30T09:13:57Z</time>
      </trkpt>
      <trkpt lat="51.034879423677921" lon="5.002116300165653">
        <ele>-191.25</ele>
        <time>2021-05-30T09:13:59Z</time>
      </trkpt>
      <trkpt lat="51.034869868308306" lon="5.00209417194128">
        <ele>-191.15000000000001</ele>
        <time>2021-05-30T09:14:00Z</time>
      </trkpt>
      <trkpt lat="51.034862995147705" lon="5.002067685127258">
        <ele>-191.11000000000001</ele>
        <time>2021-05-30T09:14:01Z</time>
      </trkpt>
      <trkpt lat="51.034756796434522" lon="5.001765182241797">
        <ele>-191.25999999999999</ele>
        <time>2021-05-30T09:14:17Z</time>
      </trkpt>
      <trkpt lat="51.034644562751055" lon="5.001585390418768">
        <ele>-190.74000000000001</ele>
        <time>2021-05-30T09:14:32Z</time>
      </trkpt>
      <trkpt lat="51.034500813111663" lon="5.00124734826386">
        <ele>-191.22</ele>
        <time>2021-05-30T09:14:48Z</time>
      </trkpt>
      <trkpt lat="51.03466585278511" lon="5.001132851466537">
        <ele>-190.90000000000001</ele>
        <time>2021-05-30T09:14:54Z</time>
      </trkpt>
      <trkpt lat="51.034681275486946" lon="5.001124637201428">
        <ele>-190.86000000000001</ele>
        <time>2021-05-30T09:14:55Z</time>
      </trkpt>
      <trkpt lat="51.034693848341703" lon="5.00111885368824">
        <ele>-190.84</ele>
        <time>2021-05-30T09:14:56Z</time>
      </trkpt>
      <trkpt lat="51.034896019846201" lon="5.001038806512952">
        <ele>-190.46000000000001</ele>
        <time>2021-05-30T09:15:12Z</time>
      </trkpt>
      <trkpt lat="51.034714803099632" lon="5.000100955367088">
        <ele>-189.59</ele>
        <time>2021-05-30T09:15:52Z</time>
      </trkpt>
      <trkpt lat="51.03463551029563" lon="4.999816222116351">
        <ele>-190.11000000000001</ele>
        <time>2021-05-30T09:16:09Z</time>
      </trkpt>
      <trkpt lat="51.034167883917689" lon="4.997983016073704">
        <ele>-189.65000000000001</ele>
        <time>2021-05-30T09:16:55Z</time>
      </trkpt>
      <trkpt lat="51.03394752368331" lon="4.997255131602287">
        <ele>-188.81999999999999</ele>
        <time>2021-05-30T09:17:09Z</time>
      </trkpt>
      <trkpt lat="51.033867811784148" lon="4.996766885742545">
        <ele>-189.40000000000001</ele>
        <time>2021-05-30T09:17:20Z</time>
      </trkpt>
      <trkpt lat="51.033898489549756" lon="4.996268665418029">
        <ele>-189.36000000000001</ele>
        <time>2021-05-30T09:17:32Z</time>
      </trkpt>
      <trkpt lat="51.032742289826274" lon="4.991852408275008">
        <ele>-189.59999999999999</ele>
        <time>2021-05-30T09:19:35Z</time>
      </trkpt>
      <trkpt lat="51.032677497714758" lon="4.991791723296046">
        <ele>-190.00999999999999</ele>
        <time>2021-05-30T09:20:02Z</time>
      </trkpt>
      <trkpt lat="51.032673725858331" lon="4.991768002510071">
        <ele>-190.03999999999999</ele>
        <time>2021-05-30T09:20:03Z</time>
      </trkpt>
      <trkpt lat="51.032669954001904" lon="4.991743778809905">
        <ele>-190.06</ele>
        <time>2021-05-30T09:20:04Z</time>
      </trkpt>
      <trkpt lat="51.032567946240306" lon="4.991065934300423">
        <ele>-190.12</ele>
        <time>2021-05-30T09:20:40Z</time>
      </trkpt>
      <trkpt lat="51.032539280131459" lon="4.990988820791245">
        <ele>-190.02000000000001</ele>
        <time>2021-05-30T09:20:43Z</time>
      </trkpt>
      <trkpt lat="51.0325285512954" lon="4.990965770557523">
        <ele>-189.97</ele>
        <time>2021-05-30T09:20:44Z</time>
      </trkpt>
      <trkpt lat="51.03252268396318" lon="4.990944564342499">
        <ele>-189.94</ele>
        <time>2021-05-30T09:20:45Z</time>
      </trkpt>
      <trkpt lat="51.032367534935474" lon="4.990501999855042">
        <ele>-190.36000000000001</ele>
        <time>2021-05-30T09:21:03Z</time>
      </trkpt>
      <trkpt lat="51.032320344820619" lon="4.99016429297626">
        <ele>-190.50999999999999</ele>
        <time>2021-05-30T09:21:19Z</time>
      </trkpt>
      <trkpt lat="51.032304922118783" lon="4.990135207772255">
        <ele>-190.53</ele>
        <time>2021-05-30T09:21:20Z</time>
      </trkpt>
      <trkpt lat="51.032209116965532" lon="4.989786688238382">
        <ele>-189.75</ele>
        <time>2021-05-30T09:21:36Z</time>
      </trkpt>
      <trkpt lat="51.032145665958524" lon="4.989471025764942">
        <ele>-189.52000000000001</ele>
        <time>2021-05-30T09:21:50Z</time>
      </trkpt>
      <trkpt lat="51.03204240091145" lon="4.989126529544592">
        <ele>-189.49000000000001</ele>
        <time>2021-05-30T09:22:07Z</time>
      </trkpt>
      <trkpt lat="51.032008370384574" lon="4.989021252840757">
        <ele>-189.31</ele>
        <time>2021-05-30T09:22:11Z</time>
      </trkpt>
      <trkpt lat="51.032002167776227" lon="4.989003231748939">
        <ele>-189.28</ele>
        <time>2021-05-30T09:22:12Z</time>
      </trkpt>
      <trkpt lat="51.031992360949516" lon="4.988980097696185">
        <ele>-189.25999999999999</ele>
        <time>2021-05-30T09:22:13Z</time>
      </trkpt>
      <trkpt lat="51.031930837780237" lon="4.988638451322913">
        <ele>-189.25999999999999</ele>
        <time>2021-05-30T09:22:29Z</time>
      </trkpt>
      <trkpt lat="51.03193536400795" lon="4.988621436059475">
        <ele>-189.25999999999999</ele>
        <time>2021-05-30T09:22:30Z</time>
      </trkpt>
      <trkpt lat="51.031820699572563" lon="4.988325806334615">
        <ele>-189.03</ele>
        <time>2021-05-30T09:22:46Z</time>
      </trkpt>
      <trkpt lat="51.031819023191929" lon="4.988255733624101">
        <ele>-189.38999999999999</ele>
        <time>2021-05-30T09:22:49Z</time>
      </trkpt>
      <trkpt lat="51.031812569126487" lon="4.988230671733618">
        <ele>-189.43000000000001</ele>
        <time>2021-05-30T09:22:50Z</time>
      </trkpt>
      <trkpt lat="51.031768815591931" lon="4.988172082230449">
        <ele>-189.37</ele>
        <time>2021-05-30T09:22:53Z</time>
      </trkpt>
      <trkpt lat="51.031709974631667" lon="4.987741420045495">
        <ele>-188.97999999999999</ele>
        <time>2021-05-30T09:23:12Z</time>
      </trkpt>
      <trkpt lat="51.031672926619649" lon="4.987648045644164">
        <ele>-188.91999999999999</ele>
        <time>2021-05-30T09:23:17Z</time>
      </trkpt>
      <trkpt lat="51.031142435967922" lon="4.98584920540452">
        <ele>-188.30000000000001</ele>
        <time>2021-05-30T09:24:40Z</time>
      </trkpt>
      <trkpt lat="51.030819229781628" lon="4.984354879707098">
        <ele>-187.83000000000001</ele>
        <time>2021-05-30T09:26:00Z</time>
      </trkpt>
      <trkpt lat="51.030784863978624" lon="4.984250860288739">
        <ele>-187.66999999999999</ele>
        <time>2021-05-30T09:26:06Z</time>
      </trkpt>
      <trkpt lat="51.030774470418692" lon="4.984230576083064">
        <ele>-187.63999999999999</ele>
        <time>2021-05-30T09:26:07Z</time>
      </trkpt>
      <trkpt lat="51.030693082138896" lon="4.984113061800599">
        <ele>-186.94999999999999</ele>
        <time>2021-05-30T09:26:16Z</time>
      </trkpt>
      <trkpt lat="51.030741278082132" lon="4.984003258869052">
        <ele>-186.36000000000001</ele>
        <time>2021-05-30T09:26:22Z</time>
      </trkpt>
      <trkpt lat="51.030905898660421" lon="4.983741408213973">
        <ele>-185.72</ele>
        <time>2021-05-30T09:26:37Z</time>
      </trkpt>
      <trkpt lat="51.031024334952235" lon="4.983436223119497">
        <ele>-185.41999999999999</ele>
        <time>2021-05-30T09:26:52Z</time>
      </trkpt>
      <trkpt lat="51.031090216711164" lon="4.983177306130529">
        <ele>-184.11000000000001</ele>
        <time>2021-05-30T09:27:06Z</time>
      </trkpt>
      <trkpt lat="51.031104130670428" lon="4.983133636415005">
        <ele>-184.00999999999999</ele>
        <time>2021-05-30T09:27:08Z</time>
      </trkpt>
      <trkpt lat="51.031112931668758" lon="4.983112849295139">
        <ele>-183.88999999999999</ele>
        <time>2021-05-30T09:27:09Z</time>
      </trkpt>
      <trkpt lat="51.031119637191296" lon="4.983094157651067">
        <ele>-183.77000000000001</ele>
        <time>2021-05-30T09:27:10Z</time>
      </trkpt>
      <trkpt lat="51.031126007437706" lon="4.98307672329247">
        <ele>-183.69</ele>
        <time>2021-05-30T09:27:11Z</time>
      </trkpt>
      <trkpt lat="51.031133802607656" lon="4.983061132952571">
        <ele>-183.63999999999999</ele>
        <time>2021-05-30T09:27:12Z</time>
      </trkpt>
      <trkpt lat="51.0311418492347" lon="4.983047051355243">
        <ele>-183.61000000000001</ele>
        <time>2021-05-30T09:27:13Z</time>
      </trkpt>
      <trkpt lat="51.031241258606315" lon="4.982809256762266">
        <ele>-183.22</ele>
        <time>2021-05-30T09:27:25Z</time>
      </trkpt>
      <trkpt lat="51.031244359910488" lon="4.98278796672821">
        <ele>-183.31999999999999</ele>
        <time>2021-05-30T09:27:26Z</time>
      </trkpt>
      <trkpt lat="51.031258441507816" lon="4.982724934816361">
        <ele>-185.53999999999999</ele>
        <time>2021-05-30T09:27:30Z</time>
      </trkpt>
      <trkpt lat="51.031286688521504" lon="4.982663495466113">
        <ele>-181.63</ele>
        <time>2021-05-30T09:27:33Z</time>
      </trkpt>
      <trkpt lat="51.031292555853724" lon="4.982629884034395">
        <ele>-180.78999999999999</ele>
        <time>2021-05-30T09:27:35Z</time>
      </trkpt>
      <trkpt lat="51.031537977978587" lon="4.982028733938932">
        <ele>-181.27000000000001</ele>
        <time>2021-05-30T09:27:51Z</time>
      </trkpt>
      <trkpt lat="51.031686253845692" lon="4.981798650696874">
        <ele>-180.31</ele>
        <time>2021-05-30T09:28:07Z</time>
      </trkpt>
      <trkpt lat="51.031811982393265" lon="4.981446275487542">
        <ele>-179.24000000000001</ele>
        <time>2021-05-30T09:28:27Z</time>
      </trkpt>
      <trkpt lat="51.03187040425837" lon="4.981273608282208">
        <ele>-178.22999999999999</ele>
        <time>2021-05-30T09:28:45Z</time>
      </trkpt>
      <trkpt lat="51.031729755923152" lon="4.981075124815106">
        <ele>-177.13</ele>
        <time>2021-05-30T09:29:02Z</time>
      </trkpt>
      <trkpt lat="51.031643925234675" lon="4.980846969410777">
        <ele>-176.5</ele>
        <time>2021-05-30T09:42:11Z</time>
      </trkpt>
      <trkpt lat="51.03191533125937" lon="4.980506915599108">
        <ele>-175.62</ele>
        <time>2021-05-30T09:42:35Z</time>
      </trkpt>
      <trkpt lat="51.032036282122135" lon="4.980355957522988">
        <ele>-174.99000000000001</ele>
        <time>2021-05-30T09:42:53Z</time>
      </trkpt>
      <trkpt lat="51.032100152224302" lon="4.980280268937349">
        <ele>-174.59</ele>
        <time>2021-05-30T09:43:02Z</time>
      </trkpt>
      <trkpt lat="51.032136026769876" lon="4.980231234803796">
        <ele>-174.50999999999999</ele>
        <time>2021-05-30T09:43:05Z</time>
      </trkpt>
      <trkpt lat="51.032158741727471" lon="4.980217153206468">
        <ele>-174.44</ele>
        <time>2021-05-30T09:43:06Z</time>
      </trkpt>
      <trkpt lat="51.032168716192245" lon="4.980208603665233">
        <ele>-174.38</ele>
        <time>2021-05-30T09:43:07Z</time>
      </trkpt>
      <trkpt lat="51.032184893265367" lon="4.980190247297287">
        <ele>-174.34</ele>
        <time>2021-05-30T09:43:08Z</time>
      </trkpt>
      <trkpt lat="51.032195454463363" lon="4.980161916464567">
        <ele>-174.31</ele>
        <time>2021-05-30T09:43:09Z</time>
      </trkpt>
      <trkpt lat="51.032202579081059" lon="4.980117408558726">
        <ele>-174.19</ele>
        <time>2021-05-30T09:43:11Z</time>
      </trkpt>
      <trkpt lat="51.032199393957853" lon="4.980097124353051">
        <ele>-174.08000000000001</ele>
        <time>2021-05-30T09:43:12Z</time>
      </trkpt>
      <trkpt lat="51.032196376472712" lon="4.98007994145155">
        <ele>-173.97999999999999</ele>
        <time>2021-05-30T09:43:13Z</time>
      </trkpt>
      <trkpt lat="51.032263515517116" lon="4.978654095903039">
        <ele>-176.81</ele>
        <time>2021-05-30T09:44:26Z</time>
      </trkpt>
      <trkpt lat="51.032286649569869" lon="4.978233492001891">
        <ele>-178.27000000000001</ele>
        <time>2021-05-30T09:44:42Z</time>
      </trkpt>
      <trkpt lat="51.032547913491726" lon="4.97570819221437">
        <ele>-185.00999999999999</ele>
        <time>2021-05-30T09:46:45Z</time>
      </trkpt>
      <trkpt lat="51.032608849927783" lon="4.975305693224073">
        <ele>-185.72</ele>
        <time>2021-05-30T09:47:05Z</time>
      </trkpt>
      <trkpt lat="51.0326096881181" lon="4.975280296057463">
        <ele>-185.75</ele>
        <time>2021-05-30T09:47:06Z</time>
      </trkpt>
      <trkpt lat="51.032610107213259" lon="4.975258335471153">
        <ele>-185.78</ele>
        <time>2021-05-30T09:47:07Z</time>
      </trkpt>
      <trkpt lat="51.032612454146147" lon="4.975234949961305">
        <ele>-185.83000000000001</ele>
        <time>2021-05-30T09:47:08Z</time>
      </trkpt>
      <trkpt lat="51.032614633440971" lon="4.97521223500371">
        <ele>-185.83000000000001</ele>
        <time>2021-05-30T09:47:09Z</time>
      </trkpt>
      <trkpt lat="51.032615639269352" lon="4.975193627178669">
        <ele>-185.83000000000001</ele>
        <time>2021-05-30T09:47:10Z</time>
      </trkpt>
      <trkpt lat="51.032612370327115" lon="4.975177953019738">
        <ele>-185.83000000000001</ele>
        <time>2021-05-30T09:47:11Z</time>
      </trkpt>
      <trkpt lat="51.03260918520391" lon="4.975163536146283">
        <ele>-185.83000000000001</ele>
        <time>2021-05-30T09:47:12Z</time>
      </trkpt>
      <trkpt lat="51.032609939575195" lon="4.975145095959306">
        <ele>-185.84</ele>
        <time>2021-05-30T09:47:13Z</time>
      </trkpt>
      <trkpt lat="51.032606670632958" lon="4.975130595266819">
        <ele>-185.86000000000001</ele>
        <time>2021-05-30T09:47:14Z</time>
      </trkpt>
      <trkpt lat="51.032538693398237" lon="4.974916940554977">
        <ele>-185.66</ele>
        <time>2021-05-30T09:47:31Z</time>
      </trkpt>
      <trkpt lat="51.032535256817937" lon="4.974907971918583">
        <ele>-185.63999999999999</ele>
        <time>2021-05-30T09:47:32Z</time>
      </trkpt>
      <trkpt lat="51.032531065866351" lon="4.974891291931272">
        <ele>-185.59999999999999</ele>
        <time>2021-05-30T09:47:33Z</time>
      </trkpt>
      <trkpt lat="51.03249435313046" lon="4.974846951663494">
        <ele>-185.59</ele>
        <time>2021-05-30T09:47:37Z</time>
      </trkpt>
      <trkpt lat="51.03248261846602" lon="4.974843850359321">
        <ele>-185.55000000000001</ele>
        <time>2021-05-30T09:47:38Z</time>
      </trkpt>
      <trkpt lat="51.032346077263355" lon="4.974773023277521">
        <ele>-185.94</ele>
        <time>2021-05-30T09:47:58Z</time>
      </trkpt>
      <trkpt lat="51.032335683703423" lon="4.974777214229107">
        <ele>-185.97</ele>
        <time>2021-05-30T09:47:59Z</time>
      </trkpt>
      <trkpt lat="51.032323278486729" lon="4.974778052419424">
        <ele>-185.96000000000001</ele>
        <time>2021-05-30T09:48:00Z</time>
      </trkpt>
      <trkpt lat="51.032311711460352" lon="4.97477981261909">
        <ele>-185.96000000000001</ele>
        <time>2021-05-30T09:48:01Z</time>
      </trkpt>
      <trkpt lat="51.032279776409268" lon="4.974656766280532">
        <ele>-185.91999999999999</ele>
        <time>2021-05-30T09:48:02Z</time>
      </trkpt>
      <trkpt lat="51.032230406999588" lon="4.974628016352654">
        <ele>-185.87</ele>
        <time>2021-05-30T09:48:03Z</time>
      </trkpt>
      <trkpt lat="51.032180953770876" lon="4.974656766280532">
        <ele>-185.56</ele>
        <time>2021-05-30T09:48:08Z</time>
      </trkpt>
      <trkpt lat="51.032080287113786" lon="4.974594824016094">
        <ele>-185.28999999999999</ele>
        <time>2021-05-30T09:48:27Z</time>
      </trkpt>
      <trkpt lat="51.031713830307126" lon="4.974326016381383">
        <ele>-184.74000000000001</ele>
        <time>2021-05-30T09:49:09Z</time>
      </trkpt>
      <trkpt lat="51.031570751219988" lon="4.973858976736665">
        <ele>-184.36000000000001</ele>
        <time>2021-05-30T09:49:27Z</time>
      </trkpt>
      <trkpt lat="51.031410908326507" lon="4.973664181306958">
        <ele>-184.06999999999999</ele>
        <time>2021-05-30T09:49:38Z</time>
      </trkpt>
      <trkpt lat="51.031392384320498" lon="4.973604753613472">
        <ele>-183.97999999999999</ele>
        <time>2021-05-30T09:49:42Z</time>
      </trkpt>
      <trkpt lat="51.031376710161567" lon="4.973545325919986">
        <ele>-183.91999999999999</ele>
        <time>2021-05-30T09:49:45Z</time>
      </trkpt>
      <trkpt lat="51.031368831172585" lon="4.97348640114069">
        <ele>-183.78</ele>
        <time>2021-05-30T09:49:48Z</time>
      </trkpt>
      <trkpt lat="51.031377129256725" lon="4.973398055881262">
        <ele>-183.52000000000001</ele>
        <time>2021-05-30T09:49:54Z</time>
      </trkpt>
      <trkpt lat="51.031371094286442" lon="4.973389841616154">
        <ele>-183.47999999999999</ele>
        <time>2021-05-30T09:49:55Z</time>
      </trkpt>
      <trkpt lat="51.031377464532852" lon="4.97337500564754">
        <ele>-183.5</ele>
        <time>2021-05-30T09:49:56Z</time>
      </trkpt>
      <trkpt lat="51.031381487846375" lon="4.972952390089631">
        <ele>-183.66</ele>
        <time>2021-05-30T09:50:12Z</time>
      </trkpt>
      <trkpt lat="51.031293896958232" lon="4.972884161397815">
        <ele>-181.55000000000001</ele>
        <time>2021-05-30T09:50:30Z</time>
      </trkpt>
      <trkpt lat="51.03111645206809" lon="4.972736639901996">
        <ele>-178.31999999999999</ele>
        <time>2021-05-30T09:50:46Z</time>
      </trkpt>
      <trkpt lat="51.030766926705837" lon="4.972179746255279">
        <ele>-175.96000000000001</ele>
        <time>2021-05-30T09:51:21Z</time>
      </trkpt>
      <trkpt lat="51.030642203986645" lon="4.971798537299037">
        <ele>-175.50999999999999</ele>
        <time>2021-05-30T09:51:41Z</time>
      </trkpt>
      <trkpt lat="51.030567772686481" lon="4.971372317522764">
        <ele>-174.86000000000001</ele>
        <time>2021-05-30T09:51:59Z</time>
      </trkpt>
      <trkpt lat="51.030477667227387" lon="4.971114993095398">
        <ele>-175.12</ele>
        <time>2021-05-30T09:52:15Z</time>
      </trkpt>
      <trkpt lat="51.030467692762613" lon="4.971094373613596">
        <ele>-175.12</ele>
        <time>2021-05-30T09:52:16Z</time>
      </trkpt>
      <trkpt lat="51.030464759096503" lon="4.971074508503079">
        <ele>-175.15000000000001</ele>
        <time>2021-05-30T09:52:17Z</time>
      </trkpt>
      <trkpt lat="51.030457969754934" lon="4.971053302288055">
        <ele>-175.18000000000001</ele>
        <time>2021-05-30T09:52:18Z</time>
      </trkpt>
      <trkpt lat="51.030350178480148" lon="4.970701849088073">
        <ele>-175.34999999999999</ele>
        <time>2021-05-30T09:52:37Z</time>
      </trkpt>
      <trkpt lat="51.03024079464376" lon="4.970368081703782">
        <ele>-175.52000000000001</ele>
        <time>2021-05-30T09:52:51Z</time>
      </trkpt>
      <trkpt lat="51.030161334201694" lon="4.969990225508809">
        <ele>-175.19</ele>
        <time>2021-05-30T09:53:08Z</time>
      </trkpt>
      <trkpt lat="51.030138367787004" lon="4.969861311838031">
        <ele>-175.31</ele>
        <time>2021-05-30T09:53:16Z</time>
      </trkpt>
      <trkpt lat="51.030127219855785" lon="4.969820156693459">
        <ele>-175.34999999999999</ele>
        <time>2021-05-30T09:53:17Z</time>
      </trkpt>
      <trkpt lat="51.030115149915218" lon="4.969792747870088">
        <ele>-175.41</ele>
        <time>2021-05-30T09:53:18Z</time>
      </trkpt>
      <trkpt lat="51.02993200533092" lon="4.969201404601336">
        <ele>-176.74000000000001</ele>
        <time>2021-05-30T09:53:34Z</time>
      </trkpt>
      <trkpt lat="51.029712818562984" lon="4.968443177640438">
        <ele>-177.94</ele>
        <time>2021-05-30T09:53:50Z</time>
      </trkpt>
      <trkpt lat="51.029482986778021" lon="4.967813696712256">
        <ele>-177.86000000000001</ele>
        <time>2021-05-30T09:54:05Z</time>
      </trkpt>
      <trkpt lat="51.029139747843146" lon="4.967285385355353">
        <ele>-178.53999999999999</ele>
        <time>2021-05-30T09:54:20Z</time>
      </trkpt>
      <trkpt lat="51.028910670429468" lon="4.966760342940688">
        <ele>-178.81999999999999</ele>
        <time>2021-05-30T09:54:35Z</time>
      </trkpt>
      <trkpt lat="51.028855266049504" lon="4.966560434550047">
        <ele>-178.09</ele>
        <time>2021-05-30T09:54:52Z</time>
      </trkpt>
      <trkpt lat="51.028830204159021" lon="4.966483069583774">
        <ele>-178.19</ele>
        <time>2021-05-30T09:54:55Z</time>
      </trkpt>
      <trkpt lat="51.028766250237823" lon="4.966301014646888">
        <ele>-178.40000000000001</ele>
        <time>2021-05-30T09:55:01Z</time>
      </trkpt>
      <trkpt lat="51.028763568028808" lon="4.96628693304956">
        <ele>-178.43000000000001</ele>
        <time>2021-05-30T09:55:02Z</time>
      </trkpt>
      <trkpt lat="51.028601042926311" lon="4.965867334976792">
        <ele>-178.80000000000001</ele>
        <time>2021-05-30T09:55:20Z</time>
      </trkpt>
      <trkpt lat="51.028459640219808" lon="4.965536668896675">
        <ele>-179.40000000000001</ele>
        <time>2021-05-30T09:55:38Z</time>
      </trkpt>
      <trkpt lat="51.028301054611802" lon="4.965108940377832">
        <ele>-179.72</ele>
        <time>2021-05-30T09:55:59Z</time>
      </trkpt>
      <trkpt lat="51.028273645788431" lon="4.964914228767157">
        <ele>-180.41</ele>
        <time>2021-05-30T09:56:11Z</time>
      </trkpt>
      <trkpt lat="51.028271298855543" lon="4.964899811893702">
        <ele>-180.40000000000001</ele>
        <time>2021-05-30T09:56:12Z</time>
      </trkpt>
      <trkpt lat="51.028266772627831" lon="4.964885646477342">
        <ele>-180.40000000000001</ele>
        <time>2021-05-30T09:56:13Z</time>
      </trkpt>
      <trkpt lat="51.028161160647869" lon="4.964558836072683">
        <ele>-180.78999999999999</ele>
        <time>2021-05-30T09:56:30Z</time>
      </trkpt>
      <trkpt lat="51.02803710848093" lon="4.964282903820276">
        <ele>-181.40000000000001</ele>
        <time>2021-05-30T09:56:49Z</time>
      </trkpt>
      <trkpt lat="51.027932334691286" lon="4.963827263563871">
        <ele>-181.94999999999999</ele>
        <time>2021-05-30T09:57:05Z</time>
      </trkpt>
      <trkpt lat="51.027739634737372" lon="4.963414454832673">
        <ele>-182.65000000000001</ele>
        <time>2021-05-30T09:57:28Z</time>
      </trkpt>
      <trkpt lat="51.027653887867928" lon="4.962956383824348">
        <ele>-183.38</ele>
        <time>2021-05-30T09:57:48Z</time>
      </trkpt>
      <trkpt lat="51.027616672217846" lon="4.962774328887463">
        <ele>-183.72999999999999</ele>
        <time>2021-05-30T09:58:03Z</time>
      </trkpt>
      <trkpt lat="51.027378207072616" lon="4.962189020588994">
        <ele>-183.80000000000001</ele>
        <time>2021-05-30T09:58:39Z</time>
      </trkpt>
      <trkpt lat="51.027368232607841" lon="4.962103944271803">
        <ele>-183.87</ele>
        <time>2021-05-30T09:58:43Z</time>
      </trkpt>
      <trkpt lat="51.027268823236227" lon="4.961745869368315">
        <ele>-184.13999999999999</ele>
        <time>2021-05-30T09:59:01Z</time>
      </trkpt>
      <trkpt lat="51.027238480746746" lon="4.961646962910891">
        <ele>-184.37</ele>
        <time>2021-05-30T09:59:09Z</time>
      </trkpt>
      <trkpt lat="51.027163378894329" lon="4.961309172213078">
        <ele>-184.19999999999999</ele>
        <time>2021-05-30T09:59:25Z</time>
      </trkpt>
      <trkpt lat="51.027028178796172" lon="4.961070958524942">
        <ele>-183.88</ele>
        <time>2021-05-30T09:59:42Z</time>
      </trkpt>
      <trkpt lat="51.026890045031905" lon="4.960490763187408">
        <ele>-183.91999999999999</ele>
        <time>2021-05-30T10:00:07Z</time>
      </trkpt>
      <trkpt lat="51.026775967329741" lon="4.960082145407796">
        <ele>-183.47999999999999</ele>
        <time>2021-05-30T10:00:25Z</time>
      </trkpt>
      <trkpt lat="51.026660045608878" lon="4.959734464064241">
        <ele>-182.94999999999999</ele>
        <time>2021-05-30T10:00:41Z</time>
      </trkpt>
      <trkpt lat="51.026532473042607" lon="4.959427518770099">
        <ele>-182.00999999999999</ele>
        <time>2021-05-30T10:00:58Z</time>
      </trkpt>
      <trkpt lat="51.026435410603881" lon="4.959180671721697">
        <ele>-182.75999999999999</ele>
        <time>2021-05-30T10:01:15Z</time>
      </trkpt>
      <trkpt lat="51.026360392570496" lon="4.958814466372132">
        <ele>-183.68000000000001</ele>
        <time>2021-05-30T10:01:31Z</time>
      </trkpt>
      <trkpt lat="51.026269532740116" lon="4.958485392853618">
        <ele>-183.94</ele>
        <time>2021-05-30T10:01:48Z</time>
      </trkpt>
      <trkpt lat="51.026212284341455" lon="4.95807945728302">
        <ele>-183.69</ele>
        <time>2021-05-30T10:02:04Z</time>
      </trkpt>
      <trkpt lat="51.026136763393879" lon="4.957715766504407">
        <ele>-183.18000000000001</ele>
        <time>2021-05-30T10:02:22Z</time>
      </trkpt>
      <trkpt lat="51.026054453104734" lon="4.957320056855679">
        <ele>-183.99000000000001</ele>
        <time>2021-05-30T10:02:39Z</time>
      </trkpt>
      <trkpt lat="51.025891257449985" lon="4.957016548141837">
        <ele>-184.28999999999999</ele>
        <time>2021-05-30T10:02:59Z</time>
      </trkpt>
      <trkpt lat="51.025920258834958" lon="4.956951839849353">
        <ele>-184.55000000000001</ele>
        <time>2021-05-30T10:03:09Z</time>
      </trkpt>
      <trkpt lat="51.025972897186875" lon="4.956851089373231">
        <ele>-185.83000000000001</ele>
        <time>2021-05-30T10:03:25Z</time>
      </trkpt>
      <trkpt lat="51.025988571345806" lon="4.956810185685754">
        <ele>-185.81999999999999</ele>
        <time>2021-05-30T10:03:30Z</time>
      </trkpt>
      <trkpt lat="51.026033079251647" lon="4.956724690273404">
        <ele>-185.88</ele>
        <time>2021-05-30T10:03:37Z</time>
      </trkpt>
      <trkpt lat="51.026083705946803" lon="4.956711949780583">
        <ele>-186.09</ele>
        <time>2021-05-30T10:03:45Z</time>
      </trkpt>
      <trkpt lat="51.026167860254645" lon="4.956650091335177">
        <ele>-185.37</ele>
        <time>2021-05-30T10:04:42Z</time>
      </trkpt>
      <trkpt lat="51.026202142238617" lon="4.956503240391612">
        <ele>-184.44</ele>
        <time>2021-05-30T10:05:05Z</time>
      </trkpt>
      <trkpt lat="51.02629316970706" lon="4.956388911232352">
        <ele>-184.13</ele>
        <time>2021-05-30T10:05:16Z</time>
      </trkpt>
      <trkpt lat="51.02638017386198" lon="4.956233007833362">
        <ele>-185.16999999999999</ele>
        <time>2021-05-30T10:05:26Z</time>
      </trkpt>
      <trkpt lat="51.026379503309727" lon="4.956211717799306">
        <ele>-185.37</ele>
        <time>2021-05-30T10:05:27Z</time>
      </trkpt>
      <trkpt lat="51.026376318186522" lon="4.956191182136536">
        <ele>-185.56</ele>
        <time>2021-05-30T10:05:28Z</time>
      </trkpt>
      <trkpt lat="51.026373971253633" lon="4.956169724464417">
        <ele>-185.81999999999999</ele>
        <time>2021-05-30T10:05:29Z</time>
      </trkpt>
      <trkpt lat="51.026370199397206" lon="4.956148182973266">
        <ele>-186.06</ele>
        <time>2021-05-30T10:05:30Z</time>
      </trkpt>
      <trkpt lat="51.02636743336916" lon="4.956130748614669">
        <ele>-186.28</ele>
        <time>2021-05-30T10:05:31Z</time>
      </trkpt>
      <trkpt lat="51.026272969320416" lon="4.955825228244066">
        <ele>-187.06999999999999</ele>
        <time>2021-05-30T10:05:46Z</time>
      </trkpt>
      <trkpt lat="51.026134248822927" lon="4.955420047044754">
        <ele>-186.71000000000001</ele>
        <time>2021-05-30T10:06:05Z</time>
      </trkpt>
      <trkpt lat="51.02601463906467" lon="4.95501478202641">
        <ele>-187.36000000000001</ele>
        <time>2021-05-30T10:06:30Z</time>
      </trkpt>
      <trkpt lat="51.025955379009247" lon="4.954876145347953">
        <ele>-187.50999999999999</ele>
        <time>2021-05-30T10:06:31Z</time>
      </trkpt>
      <trkpt lat="51.02576594799757" lon="4.95484228245914">
        <ele>-187.36000000000001</ele>
        <time>2021-05-30T10:06:48Z</time>
      </trkpt>
      <trkpt lat="51.025559166446328" lon="4.954713955521584">
        <ele>-186.34999999999999</ele>
        <time>2021-05-30T10:07:05Z</time>
      </trkpt>
      <trkpt lat="51.025387085974216" lon="4.954681601375341">
        <ele>-186.74000000000001</ele>
        <time>2021-05-30T10:07:22Z</time>
      </trkpt>
      <trkpt lat="51.025271750986576" lon="4.954794086515904">
        <ele>-186.52000000000001</ele>
        <time>2021-05-30T10:07:33Z</time>
      </trkpt>
      <trkpt lat="51.025261608883739" lon="4.95478754863143">
        <ele>-186.53</ele>
        <time>2021-05-30T10:07:34Z</time>
      </trkpt>
      <trkpt lat="51.02505843155086" lon="4.954603398218751">
        <ele>-186.37</ele>
        <time>2021-05-30T10:07:51Z</time>
      </trkpt>
      <trkpt lat="51.025019539520144" lon="4.954597111791372">
        <ele>-186.34</ele>
        <time>2021-05-30T10:07:54Z</time>
      </trkpt>
      <trkpt lat="51.024942342191935" lon="4.954631980508566">
        <ele>-186.41</ele>
        <time>2021-05-30T10:08:10Z</time>
      </trkpt>
      <trkpt lat="51.02498953230679" lon="4.954624772071838">
        <ele>-186.41</ele>
        <time>2021-05-30T10:08:45Z</time>
      </trkpt>
      <trkpt lat="51.024978384375572" lon="4.954637428745627">
        <ele>-186.41</ele>
        <time>2021-05-30T10:09:21Z</time>
      </trkpt>
      <trkpt lat="51.025079973042011" lon="4.954639272764325">
        <ele>-186.09999999999999</ele>
        <time>2021-05-30T10:09:44Z</time>
      </trkpt>
      <trkpt lat="51.025069244205952" lon="4.95465318672359">
        <ele>-186.83000000000001</ele>
        <time>2021-05-30T10:10:08Z</time>
      </trkpt>
      <trkpt lat="51.02506035938859" lon="4.954657796770334">
        <ele>-186.52000000000001</ele>
        <time>2021-05-30T10:10:52Z</time>
      </trkpt>
      <trkpt lat="51.025072513148189" lon="4.954672381281853">
        <ele>-186.52000000000001</ele>
        <time>2021-05-30T10:11:09Z</time>
      </trkpt>
      <trkpt lat="51.02509162388742" lon="4.954702723771334">
        <ele>-186.52000000000001</ele>
        <time>2021-05-30T10:11:40Z</time>
      </trkpt>
      <trkpt lat="51.025095982477069" lon="4.954657042399049">
        <ele>-186.52000000000001</ele>
        <time>2021-05-30T10:12:03Z</time>
      </trkpt>
      <trkpt lat="51.025097826495767" lon="4.954627957195044">
        <ele>-186.52000000000001</ele>
        <time>2021-05-30T10:12:29Z</time>
      </trkpt>
      <trkpt lat="51.025096401572227" lon="4.954627454280853">
        <ele>-186.52000000000001</ele>
        <time>2021-05-30T10:12:40Z</time>
      </trkpt>
      <trkpt lat="51.024993304163218" lon="4.955395823344588">
        <ele>-178.72999999999999</ele>
        <time>2021-05-30T11:10:00Z</time>
      </trkpt>
      <trkpt lat="51.024933876469731" lon="4.955580476671457">
        <ele>-178.72999999999999</ele>
        <time>2021-05-30T11:10:09Z</time>
      </trkpt>
      <trkpt lat="51.025324640795588" lon="4.956264942884445">
        <ele>-180.63999999999999</ele>
        <time>2021-05-30T11:10:46Z</time>
      </trkpt>
      <trkpt lat="51.025542905554175" lon="4.956485973671079">
        <ele>-179.47999999999999</ele>
        <time>2021-05-30T11:11:03Z</time>
      </trkpt>
      <trkpt lat="51.025621108710766" lon="4.956620251759887">
        <ele>-179.16999999999999</ele>
        <time>2021-05-30T11:11:07Z</time>
      </trkpt>
      <trkpt lat="51.025733007118106" lon="4.956661909818649">
        <ele>-178.72</ele>
        <time>2021-05-30T11:11:24Z</time>
      </trkpt>
      <trkpt lat="51.025827890262008" lon="4.956955863162875">
        <ele>-178.61000000000001</ele>
        <time>2021-05-30T11:11:42Z</time>
      </trkpt>
      <trkpt lat="51.025863932445645" lon="4.956962065771222">
        <ele>-176.69999999999999</ele>
        <time>2021-05-30T11:11:55Z</time>
      </trkpt>
      <trkpt lat="51.026065852493048" lon="4.956613462418318">
        <ele>-178.49000000000001</ele>
        <time>2021-05-30T11:13:11Z</time>
      </trkpt>
      <trkpt lat="51.026254696771502" lon="4.956513298675418">
        <ele>-178.36000000000001</ele>
        <time>2021-05-30T11:13:35Z</time>
      </trkpt>
      <trkpt lat="51.026437925174832" lon="4.956798115745187">
        <ele>-177.16</ele>
        <time>2021-05-30T11:13:55Z</time>
      </trkpt>
      <trkpt lat="51.026595756411552" lon="4.957177229225636">
        <ele>-177.88999999999999</ele>
        <time>2021-05-30T11:14:13Z</time>
      </trkpt>
      <trkpt lat="51.026931786909699" lon="4.957679305225611">
        <ele>-175.37</ele>
        <time>2021-05-30T11:14:28Z</time>
      </trkpt>
      <trkpt lat="51.028191838413477" lon="4.961042879149318">
        <ele>-170.61000000000001</ele>
        <time>2021-05-30T11:16:53Z</time>
      </trkpt>
      <trkpt lat="51.028598360717297" lon="4.961389554664493">
        <ele>-177.28</ele>
        <time>2021-05-30T11:19:15Z</time>
      </trkpt>
      <trkpt lat="51.028912765905261" lon="4.961470440030098">
        <ele>-177.00999999999999</ele>
        <time>2021-05-30T11:19:19Z</time>
      </trkpt>
      <trkpt lat="51.02910814806819" lon="4.961560713127255">
        <ele>-180.16999999999999</ele>
        <time>2021-05-30T11:20:11Z</time>
      </trkpt>
      <trkpt lat="51.029246365651488" lon="4.96197771281004">
        <ele>-180.09999999999999</ele>
        <time>2021-05-30T11:20:22Z</time>
      </trkpt>
      <trkpt lat="51.029248544946313" lon="4.96199774555862">
        <ele>-180.12</ele>
        <time>2021-05-30T11:20:23Z</time>
      </trkpt>
      <trkpt lat="51.029321718961" lon="4.962344923987985">
        <ele>-179.97</ele>
        <time>2021-05-30T11:20:39Z</time>
      </trkpt>
      <trkpt lat="51.029469911009073" lon="4.963102648034692">
        <ele>-180.24000000000001</ele>
        <time>2021-05-30T11:20:52Z</time>
      </trkpt>
      <trkpt lat="51.029655989259481" lon="4.963903957977891">
        <ele>-179.68000000000001</ele>
        <time>2021-05-30T11:21:05Z</time>
      </trkpt>
      <trkpt lat="51.030262839049101" lon="4.966438226401806">
        <ele>-177.06</ele>
        <time>2021-05-30T11:22:05Z</time>
      </trkpt>
      <trkpt lat="51.030304245650768" lon="4.966576024889946">
        <ele>-177.02000000000001</ele>
        <time>2021-05-30T11:22:07Z</time>
      </trkpt>
      <trkpt lat="51.030317405238748" lon="4.966649282723665">
        <ele>-176.97999999999999</ele>
        <time>2021-05-30T11:22:08Z</time>
      </trkpt>
      <trkpt lat="51.031079655513167" lon="4.968640571460128">
        <ele>-176.71000000000001</ele>
        <time>2021-05-30T11:22:32Z</time>
      </trkpt>
      <trkpt lat="51.032073246315122" lon="4.97285608202219">
        <ele>-176.56999999999999</ele>
        <time>2021-05-30T11:25:18Z</time>
      </trkpt>
      <trkpt lat="51.032375078648329" lon="4.974200623109937">
        <ele>-176.16999999999999</ele>
        <time>2021-05-30T11:25:35Z</time>
      </trkpt>
      <trkpt lat="51.032512625679374" lon="4.975199745967984">
        <ele>-176.71000000000001</ele>
        <time>2021-05-30T11:25:52Z</time>
      </trkpt>
      <trkpt lat="51.032314980402589" lon="4.976694490760565">
        <ele>-176.08000000000001</ele>
        <time>2021-05-30T11:26:08Z</time>
      </trkpt>
      <trkpt lat="51.032045502215624" lon="4.979734439402819">
        <ele>-165.50999999999999</ele>
        <time>2021-05-30T11:28:44Z</time>
      </trkpt>
      <trkpt lat="51.031830171123147" lon="4.980346653610468">
        <ele>-164.91</ele>
        <time>2021-05-30T11:29:48Z</time>
      </trkpt>
      <trkpt lat="51.031973836943507" lon="4.980599703267217">
        <ele>-167.77000000000001</ele>
        <time>2021-05-30T11:30:00Z</time>
      </trkpt>
      <trkpt lat="51.032017841935158" lon="4.980608085170388">
        <ele>-167.41999999999999</ele>
        <time>2021-05-30T11:30:19Z</time>
      </trkpt>
      <trkpt lat="51.032292516902089" lon="4.980333745479584">
        <ele>-168.03</ele>
        <time>2021-05-30T11:30:49Z</time>
      </trkpt>
      <trkpt lat="51.032638354226947" lon="4.980904217809439">
        <ele>-168.63999999999999</ele>
        <time>2021-05-30T11:31:09Z</time>
      </trkpt>
      <trkpt lat="51.033668154850602" lon="4.982230821624398">
        <ele>-165.44</ele>
        <time>2021-05-30T11:33:40Z</time>
      </trkpt>
      <trkpt lat="51.033920617774129" lon="4.982376415282488">
        <ele>-164.12</ele>
        <time>2021-05-30T11:33:59Z</time>
      </trkpt>
      <trkpt lat="51.034032767638564" lon="4.982467023655772">
        <ele>-164.16999999999999</ele>
        <time>2021-05-30T11:34:11Z</time>
      </trkpt>
      <trkpt lat="51.034054141491652" lon="4.982465095818043">
        <ele>-164.16999999999999</ele>
        <time>2021-05-30T11:34:12Z</time>
      </trkpt>
      <trkpt lat="51.034067887812853" lon="4.982469789683819">
        <ele>-164.21000000000001</ele>
        <time>2021-05-30T11:34:13Z</time>
      </trkpt>
      <trkpt lat="51.034086579456925" lon="4.982477501034737">
        <ele>-164.25999999999999</ele>
        <time>2021-05-30T11:34:14Z</time>
      </trkpt>
      <trkpt lat="51.034100828692317" lon="4.982484877109528">
        <ele>-164.31</ele>
        <time>2021-05-30T11:34:15Z</time>
      </trkpt>
      <trkpt lat="51.034113317728043" lon="4.982496527954936">
        <ele>-164.36000000000001</ele>
        <time>2021-05-30T11:34:16Z</time>
      </trkpt>
      <trkpt lat="51.034121615812182" lon="4.982512202113867">
        <ele>-164.41999999999999</ele>
        <time>2021-05-30T11:34:17Z</time>
      </trkpt>
      <trkpt lat="51.034120274707675" lon="4.982544640079141">
        <ele>-164.47</ele>
        <time>2021-05-30T11:34:18Z</time>
      </trkpt>
      <trkpt lat="51.034595109522343" lon="4.982701800763607">
        <ele>-165.84</ele>
        <time>2021-05-30T11:34:45Z</time>
      </trkpt>
      <trkpt lat="51.034704660996795" lon="4.983010841533542">
        <ele>-165.78</ele>
        <time>2021-05-30T11:34:48Z</time>
      </trkpt>
      <trkpt lat="51.034995764493942" lon="4.98343831859529">
        <ele>-165.74000000000001</ele>
        <time>2021-05-30T11:35:07Z</time>
      </trkpt>
      <trkpt lat="51.03543589822948" lon="4.984174836426973">
        <ele>-165.88999999999999</ele>
        <time>2021-05-30T11:36:14Z</time>
      </trkpt>
      <trkpt lat="51.036282973363996" lon="4.985735127702355">
        <ele>-167.97999999999999</ele>
        <time>2021-05-30T11:37:38Z</time>
      </trkpt>
      <trkpt lat="51.036747582256794" lon="4.986553201451898">
        <ele>-167.63</ele>
        <time>2021-05-30T11:38:26Z</time>
      </trkpt>
      <trkpt lat="51.037756009027362" lon="4.988273419439793">
        <ele>-167.28999999999999</ele>
        <time>2021-05-30T11:40:07Z</time>
      </trkpt>
      <trkpt lat="51.03802464902401" lon="4.988638367503882">
        <ele>-168.08000000000001</ele>
        <time>2021-05-30T11:40:29Z</time>
      </trkpt>
      <trkpt lat="51.038036299869418" lon="4.988655131310225">
        <ele>-168.12</ele>
        <time>2021-05-30T11:40:30Z</time>
      </trkpt>
      <trkpt lat="51.038042334839702" lon="4.9886822886765">
        <ele>-168.18000000000001</ele>
        <time>2021-05-30T11:40:31Z</time>
      </trkpt>
      <trkpt lat="51.038053734228015" lon="4.988699555397034">
        <ele>-168.25</ele>
        <time>2021-05-30T11:40:32Z</time>
      </trkpt>
      <trkpt lat="51.038062619045377" lon="4.988725790753961">
        <ele>-168.33000000000001</ele>
        <time>2021-05-30T11:40:33Z</time>
      </trkpt>
      <trkpt lat="51.038072761148214" lon="4.988752529025078">
        <ele>-168.41</ele>
        <time>2021-05-30T11:40:34Z</time>
      </trkpt>
      <trkpt lat="51.038132607936859" lon="4.988828971982002">
        <ele>-168.77000000000001</ele>
        <time>2021-05-30T11:40:39Z</time>
      </trkpt>
      <trkpt lat="51.038162363693118" lon="4.988926369696856">
        <ele>-168.97</ele>
        <time>2021-05-30T11:40:44Z</time>
      </trkpt>
      <trkpt lat="51.038324888795614" lon="4.989242032170296">
        <ele>-169.30000000000001</ele>
        <time>2021-05-30T11:40:57Z</time>
      </trkpt>
      <trkpt lat="51.038356237113476" lon="4.989296682178974">
        <ele>-169.93000000000001</ele>
        <time>2021-05-30T11:41:02Z</time>
      </trkpt>
      <trkpt lat="51.038365121930838" lon="4.989318810403347">
        <ele>-169.97999999999999</ele>
        <time>2021-05-30T11:41:03Z</time>
      </trkpt>
      <trkpt lat="51.039017653092742" lon="4.990309551358223">
        <ele>-171.84</ele>
        <time>2021-05-30T11:41:46Z</time>
      </trkpt>
      <trkpt lat="51.039466755464673" lon="4.991193423047662">
        <ele>-173.56</ele>
        <time>2021-05-30T11:42:41Z</time>
      </trkpt>
      <trkpt lat="51.04002021253109" lon="4.992115516215563">
        <ele>-174.53999999999999</ele>
        <time>2021-05-30T11:43:25Z</time>
      </trkpt>
      <trkpt lat="51.040122555568814" lon="4.992306204512715">
        <ele>-174.50999999999999</ele>
        <time>2021-05-30T11:43:26Z</time>
      </trkpt>
      <trkpt lat="51.040772069245577" lon="4.993498446419835">
        <ele>-176.06999999999999</ele>
        <time>2021-05-30T11:44:34Z</time>
      </trkpt>
      <trkpt lat="51.041028974577785" lon="4.993894994258881">
        <ele>-176.06999999999999</ele>
        <time>2021-05-30T11:44:55Z</time>
      </trkpt>
      <trkpt lat="51.041171886026859" lon="4.994101943448186">
        <ele>-176.30000000000001</ele>
        <time>2021-05-30T11:45:12Z</time>
      </trkpt>
      <trkpt lat="51.041526440531015" lon="4.994626985862851">
        <ele>-176.30000000000001</ele>
        <time>2021-05-30T11:45:39Z</time>
      </trkpt>
      <trkpt lat="51.041715620085597" lon="4.994947845116258">
        <ele>-175.97</ele>
        <time>2021-05-30T11:45:57Z</time>
      </trkpt>
      <trkpt lat="51.041927598416805" lon="4.99527582898736">
        <ele>-175.93000000000001</ele>
        <time>2021-05-30T11:46:17Z</time>
      </trkpt>
      <trkpt lat="51.042135721072555" lon="4.995630467310548">
        <ele>-175.80000000000001</ele>
        <time>2021-05-30T11:46:32Z</time>
      </trkpt>
      <trkpt lat="51.042519947513938" lon="4.996281573548913">
        <ele>-175.66999999999999</ele>
        <time>2021-05-30T11:46:42Z</time>
      </trkpt>
      <trkpt lat="51.042609885334969" lon="4.996420880779624">
        <ele>-175.38999999999999</ele>
        <time>2021-05-30T11:46:44Z</time>
      </trkpt>
      <trkpt lat="51.042646514251828" lon="4.996496653184295">
        <ele>-175.16999999999999</ele>
        <time>2021-05-30T11:46:45Z</time>
      </trkpt>
      <trkpt lat="51.042985394597054" lon="4.997092355042696">
        <ele>-174.77000000000001</ele>
        <time>2021-05-30T11:46:54Z</time>
      </trkpt>
      <trkpt lat="51.043249005451798" lon="4.997592838481069">
        <ele>-174.78</ele>
        <time>2021-05-30T11:47:01Z</time>
      </trkpt>
      <trkpt lat="51.043870272114873" lon="4.998657591640949">
        <ele>-176.31</ele>
        <time>2021-05-30T11:47:15Z</time>
      </trkpt>
      <trkpt lat="51.044189622625709" lon="4.999262597411871">
        <ele>-174.74000000000001</ele>
        <time>2021-05-30T11:47:25Z</time>
      </trkpt>
      <trkpt lat="51.044285343959928" lon="4.999540792778134">
        <ele>-175.21000000000001</ele>
        <time>2021-05-30T11:47:29Z</time>
      </trkpt>
      <trkpt lat="51.044290289282799" lon="4.999600807204843">
        <ele>-175.36000000000001</ele>
        <time>2021-05-30T11:47:30Z</time>
      </trkpt>
      <trkpt lat="51.044285763055086" lon="4.999654367566109">
        <ele>-175.43000000000001</ele>
        <time>2021-05-30T11:47:31Z</time>
      </trkpt>
      <trkpt lat="51.0442781355232" lon="4.999702647328377">
        <ele>-175.47</ele>
        <time>2021-05-30T11:47:32Z</time>
      </trkpt>
      <trkpt lat="51.044273022562265" lon="4.999747071415186">
        <ele>-175.36000000000001</ele>
        <time>2021-05-30T11:47:33Z</time>
      </trkpt>
      <trkpt lat="51.044268663972616" lon="4.999794261530042">
        <ele>-175.22999999999999</ele>
        <time>2021-05-30T11:47:34Z</time>
      </trkpt>
      <trkpt lat="51.044249553233385" lon="5.000160550698638">
        <ele>-173.96000000000001</ele>
        <time>2021-05-30T11:47:47Z</time>
      </trkpt>
      <trkpt lat="51.044259108603001" lon="5.000622477382422">
        <ele>-173.56</ele>
        <time>2021-05-30T11:47:56Z</time>
      </trkpt>
      <trkpt lat="51.044272687286139" lon="5.000687353312969">
        <ele>-173.56</ele>
        <time>2021-05-30T11:47:57Z</time>
      </trkpt>
      <trkpt lat="51.04430646635592" lon="5.000814087688923">
        <ele>-173.41</ele>
        <time>2021-05-30T11:47:59Z</time>
      </trkpt>
      <trkpt lat="51.044436804950237" lon="5.00132555142045">
        <ele>-173.19999999999999</ele>
        <time>2021-05-30T11:48:06Z</time>
      </trkpt>
      <trkpt lat="51.044725477695465" lon="5.002326937392354">
        <ele>-173.69</ele>
        <time>2021-05-30T11:48:19Z</time>
      </trkpt>
      <trkpt lat="51.045034853741527" lon="5.003578690811992">
        <ele>-173.18000000000001</ele>
        <time>2021-05-30T11:48:34Z</time>
      </trkpt>
      <trkpt lat="51.045132419094443" lon="5.003914637491107">
        <ele>-172.90000000000001</ele>
        <time>2021-05-30T11:48:45Z</time>
      </trkpt>
      <trkpt lat="51.045263847336173" lon="5.004417803138495">
        <ele>-172.99000000000001</ele>
        <time>2021-05-30T11:49:08Z</time>
      </trkpt>
      <trkpt lat="51.045376500114799" lon="5.004815775901079">
        <ele>-173.84999999999999</ele>
        <time>2021-05-30T11:49:27Z</time>
      </trkpt>
      <trkpt lat="51.04539661668241" lon="5.004895906895399">
        <ele>-174.49000000000001</ele>
        <time>2021-05-30T11:49:49Z</time>
      </trkpt>
      <trkpt lat="51.045408686622977" lon="5.004927758127451">
        <ele>-174.49000000000001</ele>
        <time>2021-05-30T11:49:59Z</time>
      </trkpt>
      <trkpt lat="51.045427210628986" lon="5.005047200247645">
        <ele>-175.05000000000001</ele>
        <time>2021-05-30T11:50:03Z</time>
      </trkpt>
      <trkpt lat="51.045550256967545" lon="5.005411980673671">
        <ele>-175.69</ele>
        <time>2021-05-30T11:55:07Z</time>
      </trkpt>
      <trkpt lat="51.04563114233315" lon="5.005787322297692">
        <ele>-177.88</ele>
        <time>2021-05-30T11:55:25Z</time>
      </trkpt>
      <trkpt lat="51.045767348259687" lon="5.006209602579474">
        <ele>-177.66</ele>
        <time>2021-05-30T11:55:45Z</time>
      </trkpt>
      <trkpt lat="51.0460499022156" lon="5.007274523377419">
        <ele>-176.33000000000001</ele>
        <time>2021-05-30T11:56:35Z</time>
      </trkpt>
      <trkpt lat="51.046258024871349" lon="5.008098296821117">
        <ele>-176.21000000000001</ele>
        <time>2021-05-30T11:57:09Z</time>
      </trkpt>
      <trkpt lat="51.046574944630265" lon="5.009012511000037">
        <ele>-176.87</ele>
        <time>2021-05-30T11:57:39Z</time>
      </trkpt>
      <trkpt lat="51.046619871631265" lon="5.009029861539602">
        <ele>-176.72</ele>
        <time>2021-05-30T11:57:40Z</time>
      </trkpt>
      <trkpt lat="51.047090599313378" lon="5.009067412465811">
        <ele>-174.49000000000001</ele>
        <time>2021-05-30T11:57:56Z</time>
      </trkpt>
      <trkpt lat="51.047393269836903" lon="5.009438060224056">
        <ele>-174.50999999999999</ele>
        <time>2021-05-30T11:58:11Z</time>
      </trkpt>
      <trkpt lat="51.047762911766768" lon="5.009908871725202">
        <ele>-174.55000000000001</ele>
        <time>2021-05-30T11:58:23Z</time>
      </trkpt>
      <trkpt lat="51.048144539818168" lon="5.010498538613319">
        <ele>-175.03999999999999</ele>
        <time>2021-05-30T11:58:31Z</time>
      </trkpt>
      <trkpt lat="51.050050836056471" lon="5.013567907735705">
        <ele>-174.13999999999999</ele>
        <time>2021-05-30T11:59:48Z</time>
      </trkpt>
      <trkpt lat="51.050238842144608" lon="5.014030002057552">
        <ele>-173.94999999999999</ele>
        <time>2021-05-30T12:00:07Z</time>
      </trkpt>
      <trkpt lat="51.050269603729248" lon="5.014210548251867">
        <ele>-173.94999999999999</ele>
        <time>2021-05-30T12:00:14Z</time>
      </trkpt>
      <trkpt lat="51.050274800509214" lon="5.014235442504287">
        <ele>-173.97999999999999</ele>
        <time>2021-05-30T12:00:15Z</time>
      </trkpt>
      <trkpt lat="51.050285110250115" lon="5.014253379777074">
        <ele>-174</ele>
        <time>2021-05-30T12:00:16Z</time>
      </trkpt>
      <trkpt lat="51.050392482429743" lon="5.01457960344851">
        <ele>-174.16</ele>
        <time>2021-05-30T12:00:34Z</time>
      </trkpt>
      <trkpt lat="51.050494741648436" lon="5.014896439388394">
        <ele>-174.40000000000001</ele>
        <time>2021-05-30T12:00:51Z</time>
      </trkpt>
      <trkpt lat="51.05061368085444" lon="5.015286952257156">
        <ele>-173.47999999999999</ele>
        <time>2021-05-30T12:01:06Z</time>
      </trkpt>
      <trkpt lat="51.050748629495502" lon="5.015694396570325">
        <ele>-173.81999999999999</ele>
        <time>2021-05-30T12:01:26Z</time>
      </trkpt>
      <trkpt lat="51.050990615040064" lon="5.016080467030406">
        <ele>-173.81999999999999</ele>
        <time>2021-05-30T12:01:44Z</time>
      </trkpt>
      <trkpt lat="51.051116092130542" lon="5.016444744542241">
        <ele>-174.44</ele>
        <time>2021-05-30T12:02:01Z</time>
      </trkpt>
      <trkpt lat="51.051168898120522" lon="5.016627386212349">
        <ele>-173.91999999999999</ele>
        <time>2021-05-30T12:02:11Z</time>
      </trkpt>
      <trkpt lat="51.05117904022336" lon="5.016657644882798">
        <ele>-173.88</ele>
        <time>2021-05-30T12:02:12Z</time>
      </trkpt>
      <trkpt lat="51.051445165649056" lon="5.017425930127502">
        <ele>-173.47</ele>
        <time>2021-05-30T12:02:48Z</time>
      </trkpt>
      <trkpt lat="51.051476933062077" lon="5.017612678930163">
        <ele>-173.58000000000001</ele>
        <time>2021-05-30T12:02:56Z</time>
      </trkpt>
      <trkpt lat="51.05148590169847" lon="5.017640674486756">
        <ele>-173.69999999999999</ele>
        <time>2021-05-30T12:02:57Z</time>
      </trkpt>
      <trkpt lat="51.051612049341202" lon="5.018033031374216">
        <ele>-173.16999999999999</ele>
        <time>2021-05-30T12:03:13Z</time>
      </trkpt>
      <trkpt lat="51.051750518381596" lon="5.018379455432296">
        <ele>-173.55000000000001</ele>
        <time>2021-05-30T12:03:30Z</time>
      </trkpt>
      <trkpt lat="51.051777172833681" lon="5.018592523410916">
        <ele>-173.59999999999999</ele>
        <time>2021-05-30T12:03:38Z</time>
      </trkpt>
      <trkpt lat="51.051773652434349" lon="5.018612304702401">
        <ele>-173.65000000000001</ele>
        <time>2021-05-30T12:03:39Z</time>
      </trkpt>
      <trkpt lat="51.051777005195618" lon="5.018707355484366">
        <ele>-173.68000000000001</ele>
        <time>2021-05-30T12:03:44Z</time>
      </trkpt>
      <trkpt lat="51.051783794537187" lon="5.0187280587852">
        <ele>-173.56999999999999</ele>
        <time>2021-05-30T12:03:45Z</time>
      </trkpt>
      <trkpt lat="51.051790919154882" lon="5.018749181181192">
        <ele>-173.36000000000001</ele>
        <time>2021-05-30T12:03:46Z</time>
      </trkpt>
      <trkpt lat="51.051825871691108" lon="5.018978761509061">
        <ele>-173.56</ele>
        <time>2021-05-30T12:04:02Z</time>
      </trkpt>
      <trkpt lat="51.05182746425271" lon="5.018998039886355">
        <ele>-173.69999999999999</ele>
        <time>2021-05-30T12:04:03Z</time>
      </trkpt>
      <trkpt lat="51.05182989500463" lon="5.019022850319743">
        <ele>-173.77000000000001</ele>
        <time>2021-05-30T12:04:04Z</time>
      </trkpt>
      <trkpt lat="51.051810951903462" lon="5.019424678757787">
        <ele>-174.13</ele>
        <time>2021-05-30T12:04:22Z</time>
      </trkpt>
      <trkpt lat="51.051821932196617" lon="5.019916109740734">
        <ele>-174.16</ele>
        <time>2021-05-30T12:04:39Z</time>
      </trkpt>
      <trkpt lat="51.051833666861057" lon="5.020762514322996">
        <ele>-174.55000000000001</ele>
        <time>2021-05-30T12:04:54Z</time>
      </trkpt>
      <trkpt lat="51.051811203360558" lon="5.021339356899262">
        <ele>-174.71000000000001</ele>
        <time>2021-05-30T12:05:06Z</time>
      </trkpt>
      <trkpt lat="51.051812879741192" lon="5.021512694656849">
        <ele>-175.13999999999999</ele>
        <time>2021-05-30T12:05:12Z</time>
      </trkpt>
      <trkpt lat="51.051825787872076" lon="5.021572457626462">
        <ele>-175.13</ele>
        <time>2021-05-30T12:05:13Z</time>
      </trkpt>
      <trkpt lat="51.051830733194947" lon="5.021607493981719">
        <ele>-175.12</ele>
        <time>2021-05-30T12:05:14Z</time>
      </trkpt>
      <trkpt lat="51.05183475650847" lon="5.021643117070198">
        <ele>-175.09</ele>
        <time>2021-05-30T12:05:15Z</time>
      </trkpt>
      <trkpt lat="51.051828972995281" lon="5.021681422367692">
        <ele>-174.99000000000001</ele>
        <time>2021-05-30T12:05:16Z</time>
      </trkpt>
      <trkpt lat="51.051837103441358" lon="5.021739089861512">
        <ele>-174.86000000000001</ele>
        <time>2021-05-30T12:05:17Z</time>
      </trkpt>
      <trkpt lat="51.051849341019988" lon="5.021793153136969">
        <ele>-174.78</ele>
        <time>2021-05-30T12:05:18Z</time>
      </trkpt>
      <trkpt lat="51.051849257200956" lon="5.021834140643477">
        <ele>-174.72999999999999</ele>
        <time>2021-05-30T12:05:19Z</time>
      </trkpt>
      <trkpt lat="51.051852526143193" lon="5.021865656599402">
        <ele>-174.71000000000001</ele>
        <time>2021-05-30T12:05:20Z</time>
      </trkpt>
      <trkpt lat="51.051864260807633" lon="5.023267110809684">
        <ele>-175.38999999999999</ele>
        <time>2021-05-30T12:05:51Z</time>
      </trkpt>
      <trkpt lat="51.051888819783926" lon="5.024210410192609">
        <ele>-174.97</ele>
        <time>2021-05-30T12:06:09Z</time>
      </trkpt>
      <trkpt lat="51.051864344626665" lon="5.024985987693071">
        <ele>-174.65000000000001</ele>
        <time>2021-05-30T12:06:26Z</time>
      </trkpt>
      <trkpt lat="51.051857639104128" lon="5.025918725878">
        <ele>-175.59999999999999</ele>
        <time>2021-05-30T12:06:43Z</time>
      </trkpt>
      <trkpt lat="51.051879348233342" lon="5.026487605646253">
        <ele>-173.69999999999999</ele>
        <time>2021-05-30T12:06:57Z</time>
      </trkpt>
      <trkpt lat="51.051930226385593" lon="5.027101328596473">
        <ele>-174.46000000000001</ele>
        <time>2021-05-30T12:07:13Z</time>
      </trkpt>
      <trkpt lat="51.051976075395942" lon="5.027538863942027">
        <ele>-175.37</ele>
        <time>2021-05-30T12:07:26Z</time>
      </trkpt>
      <trkpt lat="51.053013587370515" lon="5.030273459851742">
        <ele>-175.22999999999999</ele>
        <time>2021-05-30T12:08:14Z</time>
      </trkpt>
      <trkpt lat="51.052946196869016" lon="5.030399104580283">
        <ele>-175.94999999999999</ele>
        <time>2021-05-30T12:08:26Z</time>
      </trkpt>
      <trkpt lat="51.052348567172885" lon="5.031041409820318">
        <ele>-175.90000000000001</ele>
        <time>2021-05-30T12:08:38Z</time>
      </trkpt>
      <trkpt lat="51.051882114261389" lon="5.031610708683729">
        <ele>-176.25999999999999</ele>
        <time>2021-05-30T12:08:48Z</time>
      </trkpt>
      <trkpt lat="51.051561003550887" lon="5.031902147457004">
        <ele>-176.27000000000001</ele>
        <time>2021-05-30T12:09:00Z</time>
      </trkpt>
      <trkpt lat="51.051184572279453" lon="5.032253684476018">
        <ele>-174.02000000000001</ele>
        <time>2021-05-30T12:09:20Z</time>
      </trkpt>
      <trkpt lat="51.051130592823029" lon="5.032387040555477">
        <ele>-173.97999999999999</ele>
        <time>2021-05-30T12:09:40Z</time>
      </trkpt>
      <trkpt lat="51.050955411046743" lon="5.032214457169175">
        <ele>-173.99000000000001</ele>
        <time>2021-05-30T12:10:02Z</time>
      </trkpt>
      <trkpt lat="51.050920374691486" lon="5.032322332262993">
        <ele>-174.03</ele>
        <time>2021-05-30T12:10:15Z</time>
      </trkpt>
      <trkpt lat="51.050707474350929" lon="5.032369773834944">
        <ele>-173.99000000000001</ele>
        <time>2021-05-30T12:10:25Z</time>
      </trkpt>
      <trkpt lat="51.050454173237085" lon="5.032456107437611">
        <ele>-173.80000000000001</ele>
        <time>2021-05-30T12:10:30Z</time>
      </trkpt>
      <trkpt lat="51.050443360581994" lon="5.033181058242917">
        <ele>-173.91</ele>
        <time>2021-05-30T12:10:46Z</time>
      </trkpt>
      <trkpt lat="51.050618542358279" lon="5.033647008240223">
        <ele>-173.66999999999999</ele>
        <time>2021-05-30T12:11:15Z</time>
      </trkpt>
      <trkpt lat="51.050841668620706" lon="5.034287553280592">
        <ele>-172.50999999999999</ele>
        <time>2021-05-30T12:11:43Z</time>
      </trkpt>
      <trkpt lat="51.050850553438067" lon="5.034677898511291">
        <ele>-174.77000000000001</ele>
        <time>2021-05-30T12:12:04Z</time>
      </trkpt>
      <trkpt lat="51.050842758268118" lon="5.034692399203777">
        <ele>-174.84999999999999</ele>
        <time>2021-05-30T12:12:05Z</time>
      </trkpt>
      <trkpt lat="51.05083554983139" lon="5.034709582105279">
        <ele>-174.90000000000001</ele>
        <time>2021-05-30T12:12:06Z</time>
      </trkpt>
      <trkpt lat="51.050809901207685" lon="5.035105459392071">
        <ele>-174.50999999999999</ele>
        <time>2021-05-30T12:12:30Z</time>
      </trkpt>
      <trkpt lat="51.051006792113185" lon="5.035355743020773">
        <ele>-173.72999999999999</ele>
        <time>2021-05-30T12:12:44Z</time>
      </trkpt>
      <trkpt lat="51.0511683113873" lon="5.035780537873507">
        <ele>-173.93000000000001</ele>
        <time>2021-05-30T12:13:07Z</time>
      </trkpt>
      <trkpt lat="51.051167976111174" lon="5.035804426297545">
        <ele>-173.93000000000001</ele>
        <time>2021-05-30T12:13:08Z</time>
      </trkpt>
      <trkpt lat="51.051209969446063" lon="5.03620189614594">
        <ele>-174.22</ele>
        <time>2021-05-30T12:13:24Z</time>
      </trkpt>
      <trkpt lat="51.051123468205333" lon="5.036491407081485">
        <ele>-174.03999999999999</ele>
        <time>2021-05-30T12:13:41Z</time>
      </trkpt>
      <trkpt lat="51.051043085753918" lon="5.036587212234736">
        <ele>-174.19999999999999</ele>
        <time>2021-05-30T12:13:50Z</time>
      </trkpt>
      <trkpt lat="51.051034284755588" lon="5.036607664078474">
        <ele>-174.25</ele>
        <time>2021-05-30T12:13:51Z</time>
      </trkpt>
      <trkpt lat="51.051023807376623" lon="5.036629121750593">
        <ele>-174.22999999999999</ele>
        <time>2021-05-30T12:13:52Z</time>
      </trkpt>
      <trkpt lat="51.050780229270458" lon="5.036897761747241">
        <ele>-174.78999999999999</ele>
        <time>2021-05-30T12:14:11Z</time>
      </trkpt>
      <trkpt lat="51.050666067749262" lon="5.0371537450701">
        <ele>-174.46000000000001</ele>
        <time>2021-05-30T12:14:27Z</time>
      </trkpt>
      <trkpt lat="51.050677131861448" lon="5.037345103919506">
        <ele>-174.90000000000001</ele>
        <time>2021-05-30T12:17:39Z</time>
      </trkpt>
      <trkpt lat="51.050658607855439" lon="5.037399418652058">
        <ele>-174.22</ele>
        <time>2021-05-30T13:01:58Z</time>
      </trkpt>
      <trkpt lat="51.050652405247092" lon="5.037398831918836">
        <ele>-174.61000000000001</ele>
        <time>2021-05-30T13:02:25Z</time>
      </trkpt>
      <trkpt lat="51.050670929253101" lon="5.037334626540542">
        <ele>-173.86000000000001</ele>
        <time>2021-05-30T13:04:32Z</time>
      </trkpt>
      <trkpt lat="51.050674030557275" lon="5.037340242415667">
        <ele>-173.97999999999999</ele>
        <time>2021-05-30T13:05:02Z</time>
      </trkpt>
      <trkpt lat="51.050738152116537" lon="5.037202527746558">
        <ele>-174.03</ele>
        <time>2021-05-30T13:05:26Z</time>
      </trkpt>
      <trkpt lat="51.050863629207015" lon="5.036906646564603">
        <ele>-172.66</ele>
        <time>2021-05-30T13:05:55Z</time>
      </trkpt>
      <trkpt lat="51.050870167091489" lon="5.03690698184073">
        <ele>-172.83000000000001</ele>
        <time>2021-05-30T13:06:23Z</time>
      </trkpt>
      <trkpt lat="51.05087217874825" lon="5.036905305460095">
        <ele>-173.06</ele>
        <time>2021-05-30T13:06:34Z</time>
      </trkpt>
      <trkpt lat="51.05086388066411" lon="5.036910753697157">
        <ele>-173.16</ele>
        <time>2021-05-30T13:09:38Z</time>
      </trkpt>
      <trkpt lat="51.050882991403341" lon="5.03686792217195">
        <ele>-173.16</ele>
        <time>2021-05-30T13:09:44Z</time>
      </trkpt>
      <trkpt lat="51.050808392465115" lon="5.036647645756602">
        <ele>-172.21000000000001</ele>
        <time>2021-05-30T13:10:01Z</time>
      </trkpt>
      <trkpt lat="51.050714598968625" lon="5.036685615777969">
        <ele>-172.19</ele>
        <time>2021-05-30T13:10:11Z</time>
      </trkpt>
      <trkpt lat="51.050324672833085" lon="5.036850655451417">
        <ele>-173.09999999999999</ele>
        <time>2021-05-30T13:10:42Z</time>
      </trkpt>
      <trkpt lat="51.050175810232759" lon="5.036732135340571">
        <ele>-172.78</ele>
        <time>2021-05-30T13:10:59Z</time>
      </trkpt>
      <trkpt lat="51.05012602172792" lon="5.036293175071478">
        <ele>-172.68000000000001</ele>
        <time>2021-05-30T13:11:15Z</time>
      </trkpt>
      <trkpt lat="51.050095511600375" lon="5.035851197317243">
        <ele>-172.25</ele>
        <time>2021-05-30T13:11:37Z</time>
      </trkpt>
      <trkpt lat="51.050067599862814" lon="5.035465126857162">
        <ele>-172.18000000000001</ele>
        <time>2021-05-30T13:11:55Z</time>
      </trkpt>
      <trkpt lat="51.050046477466822" lon="5.034784600138664">
        <ele>-172.09</ele>
        <time>2021-05-30T13:12:29Z</time>
      </trkpt>
      <trkpt lat="51.050026696175337" lon="5.034637916833162">
        <ele>-171.99000000000001</ele>
        <time>2021-05-30T13:12:33Z</time>
      </trkpt>
      <trkpt lat="51.050011022016406" lon="5.0343700312078">
        <ele>-172.05000000000001</ele>
        <time>2021-05-30T13:12:50Z</time>
      </trkpt>
      <trkpt lat="51.050015380606055" lon="5.034271460026503">
        <ele>-172.00999999999999</ele>
        <time>2021-05-30T13:12:54Z</time>
      </trkpt>
      <trkpt lat="51.050016554072499" lon="5.034241704270244">
        <ele>-172.00999999999999</ele>
        <time>2021-05-30T13:12:55Z</time>
      </trkpt>
      <trkpt lat="51.050018901005387" lon="5.034204153344035">
        <ele>-172</ele>
        <time>2021-05-30T13:12:56Z</time>
      </trkpt>
      <trkpt lat="51.049999790266156" lon="5.033588586375117">
        <ele>-172</ele>
        <time>2021-05-30T13:13:14Z</time>
      </trkpt>
      <trkpt lat="51.049821926280856" lon="5.033608702942729">
        <ele>-172.19999999999999</ele>
        <time>2021-05-30T13:13:27Z</time>
      </trkpt>
      <trkpt lat="51.049787811934948" lon="5.033611552789807">
        <ele>-172.18000000000001</ele>
        <time>2021-05-30T13:13:28Z</time>
      </trkpt>
      <trkpt lat="51.049598129466176" lon="5.033571738749743">
        <ele>-172.53999999999999</ele>
        <time>2021-05-30T13:13:48Z</time>
      </trkpt>
      <trkpt lat="51.049401322379708" lon="5.033340565860272">
        <ele>-172.34999999999999</ele>
        <time>2021-05-30T13:14:04Z</time>
      </trkpt>
      <trkpt lat="51.04922647587955" lon="5.033165132626891">
        <ele>-172.13999999999999</ele>
        <time>2021-05-30T13:14:20Z</time>
      </trkpt>
      <trkpt lat="51.0492152441293" lon="5.033156247809529">
        <ele>-172.13</ele>
        <time>2021-05-30T13:14:21Z</time>
      </trkpt>
      <trkpt lat="51.049199067056179" lon="5.033146943897009">
        <ele>-172.13</ele>
        <time>2021-05-30T13:14:22Z</time>
      </trkpt>
      <trkpt lat="51.049116170033813" lon="5.032935049384832">
        <ele>-172.56</ele>
        <time>2021-05-30T13:14:34Z</time>
      </trkpt>
      <trkpt lat="51.048960937187076" lon="5.032468261197209">
        <ele>-172.58000000000001</ele>
        <time>2021-05-30T13:14:48Z</time>
      </trkpt>
      <trkpt lat="51.048726327717304" lon="5.031450698152185">
        <ele>-171.90000000000001</ele>
        <time>2021-05-30T13:15:02Z</time>
      </trkpt>
      <trkpt lat="51.048368839547038" lon="5.031479531899095">
        <ele>-172.28</ele>
        <time>2021-05-30T13:15:11Z</time>
      </trkpt>
      <trkpt lat="51.048278985545039" lon="5.031290268525481">
        <ele>-172.16</ele>
        <time>2021-05-30T13:15:21Z</time>
      </trkpt>
      <trkpt lat="51.04798536747694" lon="5.030577890574932">
        <ele>-171.62</ele>
        <time>2021-05-30T13:15:38Z</time>
      </trkpt>
      <trkpt lat="51.047784872353077" lon="5.030008424073458">
        <ele>-171.84</ele>
        <time>2021-05-30T13:15:51Z</time>
      </trkpt>
      <trkpt lat="51.047527967020869" lon="5.029248939827085">
        <ele>-171.96000000000001</ele>
        <time>2021-05-30T13:16:08Z</time>
      </trkpt>
      <trkpt lat="51.047243569046259" lon="5.02841804176569">
        <ele>-171.13999999999999</ele>
        <time>2021-05-30T13:16:26Z</time>
      </trkpt>
      <trkpt lat="51.047020610421896" lon="5.027684541419148">
        <ele>-170.38</ele>
        <time>2021-05-30T13:16:43Z</time>
      </trkpt>
      <trkpt lat="51.046851128339767" lon="5.027170144021511">
        <ele>-169.30000000000001</ele>
        <time>2021-05-30T13:16:56Z</time>
      </trkpt>
      <trkpt lat="51.046499507501721" lon="5.026447456330061">
        <ele>-169.09</ele>
        <time>2021-05-30T13:17:12Z</time>
      </trkpt>
      <trkpt lat="51.046276716515422" lon="5.025873463600874">
        <ele>-169.43000000000001</ele>
        <time>2021-05-30T13:17:27Z</time>
      </trkpt>
      <trkpt lat="51.046081585809588" lon="5.025313133373857">
        <ele>-169.31</ele>
        <time>2021-05-30T13:17:43Z</time>
      </trkpt>
      <trkpt lat="51.045919898897409" lon="5.025448333472014">
        <ele>-170.52000000000001</ele>
        <time>2021-05-30T13:18:06Z</time>
      </trkpt>
      <trkpt lat="51.045882180333138" lon="5.025491500273347">
        <ele>-170.97</ele>
        <time>2021-05-30T13:18:25Z</time>
      </trkpt>
      <trkpt lat="51.045638937503099" lon="5.025680344551802">
        <ele>-171.13</ele>
        <time>2021-05-30T13:18:33Z</time>
      </trkpt>
      <trkpt lat="51.045408686622977" lon="5.025875475257635">
        <ele>-172.13999999999999</ele>
        <time>2021-05-30T13:18:53Z</time>
      </trkpt>
      <trkpt lat="51.045040218159556" lon="5.026082592085004">
        <ele>-173.06999999999999</ele>
        <time>2021-05-30T13:19:09Z</time>
      </trkpt>
      <trkpt lat="51.044748276472092" lon="5.026167836040258">
        <ele>-172.56</ele>
        <time>2021-05-30T13:19:29Z</time>
      </trkpt>
      <trkpt lat="51.044451138004661" lon="5.026271352544427">
        <ele>-172.27000000000001</ele>
        <time>2021-05-30T13:19:47Z</time>
      </trkpt>
      <trkpt lat="51.0441745352" lon="5.026329355314374">
        <ele>-171.97999999999999</ele>
        <time>2021-05-30T13:20:08Z</time>
      </trkpt>
      <trkpt lat="51.043990384787321" lon="5.026534711942077">
        <ele>-171.81999999999999</ele>
        <time>2021-05-30T13:20:22Z</time>
      </trkpt>
      <trkpt lat="51.043814700096846" lon="5.026789354160428">
        <ele>-172.02000000000001</ele>
        <time>2021-05-30T13:20:40Z</time>
      </trkpt>
      <trkpt lat="51.043643290176988" lon="5.027005188167095">
        <ele>-171.97999999999999</ele>
        <time>2021-05-30T13:20:56Z</time>
      </trkpt>
      <trkpt lat="51.043457798659801" lon="5.027227140963078">
        <ele>-171.61000000000001</ele>
        <time>2021-05-30T13:21:16Z</time>
      </trkpt>
      <trkpt lat="51.043304828926921" lon="5.027346918359399">
        <ele>-171.16</ele>
        <time>2021-05-30T13:21:33Z</time>
      </trkpt>
      <trkpt lat="51.043260404840112" lon="5.027381367981434">
        <ele>-171.11000000000001</ele>
        <time>2021-05-30T13:21:34Z</time>
      </trkpt>
      <trkpt lat="51.043040966615081" lon="5.027553364634514">
        <ele>-170.44999999999999</ele>
        <time>2021-05-30T13:21:53Z</time>
      </trkpt>
      <trkpt lat="51.04272480122745" lon="5.027520004659891">
        <ele>-170.21000000000001</ele>
        <time>2021-05-30T13:22:11Z</time>
      </trkpt>
      <trkpt lat="51.042489856481552" lon="5.027455715462565">
        <ele>-170.34999999999999</ele>
        <time>2021-05-30T13:22:29Z</time>
      </trkpt>
      <trkpt lat="51.042304029688239" lon="5.027467869222164">
        <ele>-170.22</ele>
        <time>2021-05-30T13:22:47Z</time>
      </trkpt>
      <trkpt lat="51.042255833745003" lon="5.02744666300714">
        <ele>-170.09999999999999</ele>
        <time>2021-05-30T13:23:08Z</time>
      </trkpt>
      <trkpt lat="51.042243763804436" lon="5.027446327731013">
        <ele>-170.09999999999999</ele>
        <time>2021-05-30T13:23:09Z</time>
      </trkpt>
      <trkpt lat="51.04215650819242" lon="5.027420511469245">
        <ele>-170.06</ele>
        <time>2021-05-30T13:23:16Z</time>
      </trkpt>
      <trkpt lat="51.041902704164386" lon="5.027327388525009">
        <ele>-169.63</ele>
        <time>2021-05-30T13:23:35Z</time>
      </trkpt>
      <trkpt lat="51.041637416929007" lon="5.027248514816165">
        <ele>-169.59</ele>
        <time>2021-05-30T13:23:54Z</time>
      </trkpt>
      <trkpt lat="51.041522165760398" lon="5.027224877849221">
        <ele>-169.50999999999999</ele>
        <time>2021-05-30T13:24:04Z</time>
      </trkpt>
      <trkpt lat="51.041503977030516" lon="5.02721942961216">
        <ele>-169.5</ele>
        <time>2021-05-30T13:24:05Z</time>
      </trkpt>
      <trkpt lat="51.041486961767077" lon="5.02721406519413">
        <ele>-169.50999999999999</ele>
        <time>2021-05-30T13:24:06Z</time>
      </trkpt>
      <trkpt lat="51.041471119970083" lon="5.027211466804147">
        <ele>-169.50999999999999</ele>
        <time>2021-05-30T13:24:07Z</time>
      </trkpt>
      <trkpt lat="51.041448907926679" lon="5.027205012738705">
        <ele>-169.50999999999999</ele>
        <time>2021-05-30T13:24:08Z</time>
      </trkpt>
      <trkpt lat="51.041219159960747" lon="5.027145082131028">
        <ele>-169.59999999999999</ele>
        <time>2021-05-30T13:24:26Z</time>
      </trkpt>
      <trkpt lat="51.040976336225867" lon="5.027097892016172">
        <ele>-170.13</ele>
        <time>2021-05-30T13:24:44Z</time>
      </trkpt>
      <trkpt lat="51.040735440328717" lon="5.027017761021853">
        <ele>-170.56999999999999</ele>
        <time>2021-05-30T13:25:02Z</time>
      </trkpt>
      <trkpt lat="51.040471158921719" lon="5.026976019144058">
        <ele>-170.18000000000001</ele>
        <time>2021-05-30T13:25:20Z</time>
      </trkpt>
      <trkpt lat="51.040263120085001" lon="5.026998147368431">
        <ele>-169.75999999999999</ele>
        <time>2021-05-30T13:25:36Z</time>
      </trkpt>
      <trkpt lat="51.040036389604211" lon="5.026890523731709">
        <ele>-169.31999999999999</ele>
        <time>2021-05-30T13:25:54Z</time>
      </trkpt>
      <trkpt lat="51.039727348834276" lon="5.026800082996488">
        <ele>-169.52000000000001</ele>
        <time>2021-05-30T13:26:14Z</time>
      </trkpt>
      <trkpt lat="51.039491649717093" lon="5.026725567877293">
        <ele>-169.12</ele>
        <time>2021-05-30T13:26:33Z</time>
      </trkpt>
      <trkpt lat="51.039391485974193" lon="5.026747109368444">
        <ele>-169.13999999999999</ele>
        <time>2021-05-30T13:26:45Z</time>
      </trkpt>
      <trkpt lat="51.039369944483042" lon="5.026742750778794">
        <ele>-169.13</ele>
        <time>2021-05-30T13:26:46Z</time>
      </trkpt>
      <trkpt lat="51.039477484300733" lon="5.02715933136642">
        <ele>-169.40000000000001</ele>
        <time>2021-05-30T13:27:01Z</time>
      </trkpt>
      <trkpt lat="51.039551747962832" lon="5.02752872183919">
        <ele>-169.66999999999999</ele>
        <time>2021-05-30T13:27:19Z</time>
      </trkpt>
      <trkpt lat="51.039554681628942" lon="5.027603823691607">
        <ele>-169.81</ele>
        <time>2021-05-30T13:27:23Z</time>
      </trkpt>
      <trkpt lat="51.039564153179526" lon="5.027761571109295">
        <ele>-169.66</ele>
        <time>2021-05-30T13:27:33Z</time>
      </trkpt>
      <trkpt lat="51.039563147351146" lon="5.027782609686256">
        <ele>-169.65000000000001</ele>
        <time>2021-05-30T13:27:34Z</time>
      </trkpt>
      <trkpt lat="51.039568427950144" lon="5.027809767052531">
        <ele>-169.63999999999999</ele>
        <time>2021-05-30T13:27:35Z</time>
      </trkpt>
      <trkpt lat="51.039700359106064" lon="5.028296252712607">
        <ele>-169.81999999999999</ele>
        <time>2021-05-30T13:27:54Z</time>
      </trkpt>
      <trkpt lat="51.039767330512404" lon="5.028612585738301">
        <ele>-169.37</ele>
        <time>2021-05-30T13:28:10Z</time>
      </trkpt>
      <trkpt lat="51.039873780682683" lon="5.028992872685194">
        <ele>-169.13</ele>
        <time>2021-05-30T13:28:27Z</time>
      </trkpt>
      <trkpt lat="51.039964975789189" lon="5.029409872367978">
        <ele>-169.05000000000001</ele>
        <time>2021-05-30T13:28:47Z</time>
      </trkpt>
      <trkpt lat="51.039995905011892" lon="5.029698377475143">
        <ele>-169.06999999999999</ele>
        <time>2021-05-30T13:29:02Z</time>
      </trkpt>
      <trkpt lat="51.040002023801208" lon="5.02972561866045">
        <ele>-169.03999999999999</ele>
        <time>2021-05-30T13:29:03Z</time>
      </trkpt>
      <trkpt lat="51.040007974952459" lon="5.029756966978312">
        <ele>-169.03</ele>
        <time>2021-05-30T13:29:04Z</time>
      </trkpt>
      <trkpt lat="51.040016356855631" lon="5.029789824038744">
        <ele>-169</ele>
        <time>2021-05-30T13:29:05Z</time>
      </trkpt>
      <trkpt lat="51.040023481473327" lon="5.029813377186656">
        <ele>-168.94999999999999</ele>
        <time>2021-05-30T13:29:06Z</time>
      </trkpt>
      <trkpt lat="51.040029767900705" lon="5.029836092144251">
        <ele>-168.84</ele>
        <time>2021-05-30T13:29:07Z</time>
      </trkpt>
      <trkpt lat="51.040033539757133" lon="5.029856543987989">
        <ele>-168.81</ele>
        <time>2021-05-30T13:29:08Z</time>
      </trkpt>
      <trkpt lat="51.040116520598531" lon="5.03027974627912">
        <ele>-168.94</ele>
        <time>2021-05-30T13:29:26Z</time>
      </trkpt>
      <trkpt lat="51.040120124816895" lon="5.030386028811336">
        <ele>-169.03</ele>
        <time>2021-05-30T13:29:32Z</time>
      </trkpt>
      <trkpt lat="51.040106378495693" lon="5.03038820810616">
        <ele>-169</ele>
        <time>2021-05-30T13:29:33Z</time>
      </trkpt>
      <trkpt lat="51.040092213079333" lon="5.030390387400985">
        <ele>-168.96000000000001</ele>
        <time>2021-05-30T13:29:34Z</time>
      </trkpt>
      <trkpt lat="51.039886856451631" lon="5.030391728505492">
        <ele>-167.94999999999999</ele>
        <time>2021-05-30T13:29:50Z</time>
      </trkpt>
      <trkpt lat="51.039629280567169" lon="5.030369097366929">
        <ele>-167.99000000000001</ele>
        <time>2021-05-30T13:30:09Z</time>
      </trkpt>
      <trkpt lat="51.039611846208572" lon="5.030371192842722">
        <ele>-167.97</ele>
        <time>2021-05-30T13:30:10Z</time>
      </trkpt>
      <trkpt lat="51.039593825116754" lon="5.030374545603991">
        <ele>-167.94</ele>
        <time>2021-05-30T13:30:11Z</time>
      </trkpt>
      <trkpt lat="51.039573960006237" lon="5.030377814546228">
        <ele>-167.86000000000001</ele>
        <time>2021-05-30T13:30:12Z</time>
      </trkpt>
      <trkpt lat="51.039554933086038" lon="5.030377898365259">
        <ele>-167.77000000000001</ele>
        <time>2021-05-30T13:30:13Z</time>
      </trkpt>
      <trkpt lat="51.039540516212583" lon="5.030379658564925">
        <ele>-167.69999999999999</ele>
        <time>2021-05-30T13:30:14Z</time>
      </trkpt>
      <trkpt lat="51.039524003863335" lon="5.030387034639716">
        <ele>-167.62</ele>
        <time>2021-05-30T13:30:15Z</time>
      </trkpt>
      <trkpt lat="51.039508916437626" lon="5.03039357252419">
        <ele>-167.56</ele>
        <time>2021-05-30T13:30:16Z</time>
      </trkpt>
      <trkpt lat="51.039377907291055" lon="5.03039357252419">
        <ele>-167.22</ele>
        <time>2021-05-30T13:30:25Z</time>
      </trkpt>
      <trkpt lat="51.039334824308753" lon="5.030376305803657">
        <ele>-167.21000000000001</ele>
        <time>2021-05-30T13:30:26Z</time>
      </trkpt>
      <trkpt lat="51.039327783510089" lon="5.030386447906494">
        <ele>-167.00999999999999</ele>
        <time>2021-05-30T13:30:29Z</time>
      </trkpt>
      <trkpt lat="51.039317389950156" lon="5.030375132337213">
        <ele>-166.96000000000001</ele>
        <time>2021-05-30T13:30:30Z</time>
      </trkpt>
      <trkpt lat="51.039255447685719" lon="5.030317883938551">
        <ele>-167.03</ele>
        <time>2021-05-30T13:30:35Z</time>
      </trkpt>
      <trkpt lat="51.039238851517439" lon="5.03031981177628">
        <ele>-167.13</ele>
        <time>2021-05-30T13:30:36Z</time>
      </trkpt>
      <trkpt lat="51.039225356653333" lon="5.030324757099152">
        <ele>-167.19</ele>
        <time>2021-05-30T13:30:37Z</time>
      </trkpt>
      <trkpt lat="51.039186380803585" lon="5.030409833416343">
        <ele>-167.21000000000001</ele>
        <time>2021-05-30T13:30:42Z</time>
      </trkpt>
      <trkpt lat="51.039186045527458" lon="5.030434811487794">
        <ele>-167.22999999999999</ele>
        <time>2021-05-30T13:30:43Z</time>
      </trkpt>
      <trkpt lat="51.03918856009841" lon="5.030455514788628">
        <ele>-167.24000000000001</ele>
        <time>2021-05-30T13:30:44Z</time>
      </trkpt>
      <trkpt lat="51.039186883717775" lon="5.030482336878777">
        <ele>-167.24000000000001</ele>
        <time>2021-05-30T13:30:45Z</time>
      </trkpt>
      <trkpt lat="51.039184704422951" lon="5.03050547093153">
        <ele>-167.24000000000001</ele>
        <time>2021-05-30T13:30:46Z</time>
      </trkpt>
      <trkpt lat="51.039184033870697" lon="5.030531287193298">
        <ele>-167.24000000000001</ele>
        <time>2021-05-30T13:30:47Z</time>
      </trkpt>
      <trkpt lat="51.039140783250332" lon="5.030984748154879">
        <ele>-165.78</ele>
        <time>2021-05-30T13:31:06Z</time>
      </trkpt>
      <trkpt lat="51.038770554587245" lon="5.031607523560524">
        <ele>-162.22999999999999</ele>
        <time>2021-05-30T13:31:39Z</time>
      </trkpt>
      <trkpt lat="51.038451539352536" lon="5.032109348103404">
        <ele>-160.38</ele>
        <time>2021-05-30T13:31:55Z</time>
      </trkpt>
      <trkpt lat="51.038110814988613" lon="5.032547554001212">
        <ele>-158.91999999999999</ele>
        <time>2021-05-30T13:32:10Z</time>
      </trkpt>
      <trkpt lat="51.037578983232379" lon="5.033205533400178">
        <ele>-153.55000000000001</ele>
        <time>2021-05-30T13:32:35Z</time>
      </trkpt>
      <trkpt lat="51.03727949783206" lon="5.033211736008525">
        <ele>-150.49000000000001</ele>
        <time>2021-05-30T13:32:45Z</time>
      </trkpt>
      <trkpt lat="51.036827294155955" lon="5.033327909186482">
        <ele>-149.78</ele>
        <time>2021-05-30T13:33:01Z</time>
      </trkpt>
      <trkpt lat="51.036214157938957" lon="5.033554472029209">
        <ele>-149.69</ele>
        <time>2021-05-30T13:33:17Z</time>
      </trkpt>
      <trkpt lat="51.03634231723845" lon="5.034861210733652">
        <ele>-147.53</ele>
        <time>2021-05-30T13:33:45Z</time>
      </trkpt>
      <trkpt lat="51.036348855122924" lon="5.035405950620771">
        <ele>-146.88999999999999</ele>
        <time>2021-05-30T13:33:58Z</time>
      </trkpt>
      <trkpt lat="51.036289595067501" lon="5.035457666963339">
        <ele>-146.75999999999999</ele>
        <time>2021-05-30T13:34:07Z</time>
      </trkpt>
      <trkpt lat="51.036246512085199" lon="5.035449033603072">
        <ele>-146.71000000000001</ele>
        <time>2021-05-30T13:34:09Z</time>
      </trkpt>
      <trkpt lat="51.036209799349308" lon="5.035489937290549">
        <ele>-146.78999999999999</ele>
        <time>2021-05-30T13:34:14Z</time>
      </trkpt>
      <trkpt lat="51.036200663074851" lon="5.035504270344973">
        <ele>-146.84999999999999</ele>
        <time>2021-05-30T13:34:15Z</time>
      </trkpt>
      <trkpt lat="51.035651061683893" lon="5.035665286704898">
        <ele>-148.40000000000001</ele>
        <time>2021-05-30T13:34:52Z</time>
      </trkpt>
      <trkpt lat="51.035569589585066" lon="5.035734856501222">
        <ele>-149.02000000000001</ele>
        <time>2021-05-30T13:34:59Z</time>
      </trkpt>
      <trkpt lat="51.035291394218802" lon="5.035839546471834">
        <ele>-150.56</ele>
        <time>2021-05-30T13:35:19Z</time>
      </trkpt>
      <trkpt lat="51.035020155832171" lon="5.036009531468153">
        <ele>-151.56999999999999</ele>
        <time>2021-05-30T13:35:37Z</time>
      </trkpt>
      <trkpt lat="51.034560576081276" lon="5.036192676052451">
        <ele>-153.59</ele>
        <time>2021-05-30T13:36:11Z</time>
      </trkpt>
    </trkseg>
  </trk>

</gpx>